UAL840 KMCO-GOBD
Flight info
| Callsign | UAL840 |
|---|---|
| Flight time | 7h 24m |
| Altitude | 35000 |
| Route | MZULO3 LENDS M203 SNAGY 2960N 2957N 2950N 2945N 2842N 2740N 2434N ULTEM UR976 LUMPO R976 LIGOV |
| Aircraft | B77W/H-SDE1E2E3FGHIJ2J3J4J5M1RWXY/LB1D1 |
Departure
| Time | 2026-04-25 13:33 |
|---|---|
| Airport | Orlando International Airport (KMCO) |
Arrival
| Time | 2026-04-25 20:57 |
|---|---|
| Airport | Blaise Diagne International Airport (GOBD) |
| Time | Latitude | Longitude | Altitude | Speed | Heading |
|---|---|---|---|---|---|
| 2026-04-25 13:00 | 28.43627 | -81.30239 | 106 ft | 0 kts | 179° |
| 2026-04-25 13:13 | 28.43629 | -81.30240 | 106 ft | 2 kts | 179° |
| 2026-04-25 13:14 | 28.43647 | -81.30240 | 105 ft | 3 kts | 179° |
| 2026-04-25 13:14 | 28.43665 | -81.30240 | 105 ft | 3 kts | 179° |
| 2026-04-25 13:14 | 28.43683 | -81.30240 | 105 ft | 3 kts | 179° |
| 2026-04-25 13:14 | 28.43701 | -81.30240 | 105 ft | 2 kts | 179° |
| 2026-04-25 13:15 | 28.43712 | -81.30241 | 105 ft | 2 kts | 179° |
| 2026-04-25 13:15 | 28.43729 | -81.30241 | 105 ft | 2 kts | 179° |
| 2026-04-25 13:15 | 28.43746 | -81.30241 | 105 ft | 2 kts | 179° |
| 2026-04-25 13:15 | 28.43763 | -81.30241 | 104 ft | 2 kts | 179° |
| 2026-04-25 13:16 | 28.43771 | -81.30241 | 105 ft | 0 kts | 179° |
| 2026-04-25 13:16 | 28.43764 | -81.30237 | 105 ft | 2 kts | 148° |
| 2026-04-25 13:17 | 28.43763 | -81.30218 | 107 ft | 3 kts | 74° |
| 2026-04-25 13:17 | 28.43770 | -81.30195 | 108 ft | 3 kts | 72° |
| 2026-04-25 13:17 | 28.43775 | -81.30187 | 107 ft | 0 kts | 54° |
| 2026-04-25 13:19 | 28.43783 | -81.30175 | 107 ft | 6 kts | 52° |
| 2026-04-25 13:19 | 28.43805 | -81.30143 | 108 ft | 8 kts | 53° |
| 2026-04-25 13:20 | 28.43825 | -81.30062 | 109 ft | 8 kts | 89° |
| 2026-04-25 13:20 | 28.43823 | -81.30025 | 107 ft | 0 kts | 94° |
| 2026-04-25 13:25 | 28.43822 | -81.30014 | 108 ft | 7 kts | 90° |
| 2026-04-25 13:25 | 28.43843 | -81.29955 | 108 ft | 8 kts | 65° |
| 2026-04-25 13:25 | 28.43837 | -81.29892 | 108 ft | 8 kts | 119° |
| 2026-04-25 13:25 | 28.43795 | -81.29846 | 108 ft | 9 kts | 147° |
| 2026-04-25 13:26 | 28.43749 | -81.29821 | 108 ft | 7 kts | 161° |
| 2026-04-25 13:26 | 28.43700 | -81.29810 | 108 ft | 7 kts | 174° |
| 2026-04-25 13:26 | 28.43695 | -81.29810 | 108 ft | 0 kts | 175° |
| 2026-04-25 13:28 | 28.43659 | -81.29808 | 109 ft | 8 kts | 178° |
| 2026-04-25 13:28 | 28.43624 | -81.29807 | 109 ft | 8 kts | 178° |
| 2026-04-25 13:28 | 28.43593 | -81.29802 | 109 ft | 0 kts | 166° |
| 2026-04-25 13:30 | 28.43561 | -81.29784 | 109 ft | 8 kts | 136° |
| 2026-04-25 13:30 | 28.43551 | -81.29740 | 108 ft | 5 kts | 90° |
| 2026-04-25 13:31 | 28.43551 | -81.29720 | 108 ft | 0 kts | 90° |
| 2026-04-25 13:31 | 28.43551 | -81.29711 | 108 ft | 7 kts | 90° |
| 2026-04-25 13:31 | 28.43551 | -81.29638 | 108 ft | 7 kts | 92° |
| 2026-04-25 13:31 | 28.43521 | -81.29600 | 109 ft | 7 kts | 154° |
| 2026-04-25 13:32 | 28.43484 | -81.29590 | 110 ft | 0 kts | 174° |
| 2026-04-25 13:32 | 28.43384 | -81.29586 | 111 ft | 43 kts | 179° |
| 2026-04-25 13:33 | 28.42818 | -81.29580 | 109 ft | 118 kts | 179° |
| 2026-04-25 13:33 | 28.41778 | -81.29577 | 112 ft | 177 kts | 181° |
| 2026-04-25 13:33 | 28.40473 | -81.29553 | 470 ft | 194 kts | 178° |
| 2026-04-25 13:33 | 28.39561 | -81.29516 | 806 ft | 203 kts | 178° |
| 2026-04-25 13:34 | 28.37750 | -81.28955 | 1480 ft | 212 kts | 146° |
| 2026-04-25 13:34 | 28.36501 | -81.27974 | 1956 ft | 228 kts | 148° |
| 2026-04-25 13:34 | 28.35115 | -81.26958 | 2334 ft | 243 kts | 149° |
| 2026-04-25 13:34 | 28.33741 | -81.25791 | 2942 ft | 251 kts | 138° |
| 2026-04-25 13:35 | 28.32479 | -81.24374 | 3518 ft | 260 kts | 133° |
| 2026-04-25 13:35 | 28.31234 | -81.22835 | 4170 ft | 268 kts | 132° |
| 2026-04-25 13:35 | 28.29984 | -81.21241 | 4918 ft | 272 kts | 131° |
| 2026-04-25 13:35 | 28.28730 | -81.19619 | 5679 ft | 274 kts | 130° |
| 2026-04-25 13:36 | 28.27500 | -81.17959 | 6374 ft | 275 kts | 123° |
| 2026-04-25 13:36 | 28.26885 | -81.15913 | 6872 ft | 281 kts | 89° |
| 2026-04-25 13:36 | 28.27375 | -81.13790 | 7473 ft | 282 kts | 55° |
| 2026-04-25 13:36 | 28.28598 | -81.12090 | 8032 ft | 284 kts | 49° |
| 2026-04-25 13:37 | 28.29829 | -81.10307 | 8641 ft | 290 kts | 51° |
| 2026-04-25 13:37 | 28.31033 | -81.08460 | 9363 ft | 292 kts | 52° |
| 2026-04-25 13:37 | 28.32240 | -81.06587 | 10047 ft | 295 kts | 51° |
| 2026-04-25 13:37 | 28.33475 | -81.04670 | 10457 ft | 310 kts | 51° |
| 2026-04-25 13:38 | 28.34798 | -81.02618 | 10631 ft | 333 kts | 52° |
| 2026-04-25 13:38 | 28.36213 | -81.00420 | 10801 ft | 356 kts | 52° |
| 2026-04-25 13:38 | 28.37720 | -80.98074 | 11128 ft | 374 kts | 52° |
| 2026-04-25 13:38 | 28.39257 | -80.95676 | 11744 ft | 384 kts | 52° |
| 2026-04-25 13:39 | 28.40841 | -80.93203 | 12530 ft | 389 kts | 52° |
| 2026-04-25 13:39 | 28.42445 | -80.90697 | 13431 ft | 393 kts | 52° |
| 2026-04-25 13:39 | 28.44072 | -80.88159 | 13996 ft | 398 kts | 52° |
| 2026-04-25 13:39 | 28.45691 | -80.85613 | 13993 ft | 399 kts | 54° |
| 2026-04-25 13:40 | 28.47050 | -80.82839 | 13992 ft | 404 kts | 65° |
| 2026-04-25 13:40 | 28.47945 | -80.79849 | 14004 ft | 405 kts | 74° |
| 2026-04-25 13:40 | 28.48420 | -80.76692 | 14005 ft | 406 kts | 82° |
| 2026-04-25 13:40 | 28.48748 | -80.73507 | 14010 ft | 406 kts | 82° |
| 2026-04-25 13:41 | 28.49074 | -80.70317 | 14005 ft | 406 kts | 82° |
| 2026-04-25 13:41 | 28.49407 | -80.67125 | 14111 ft | 409 kts | 82° |
| 2026-04-25 13:41 | 28.49752 | -80.63890 | 14794 ft | 414 kts | 81° |
| 2026-04-25 13:41 | 28.50105 | -80.60634 | 15602 ft | 417 kts | 81° |
| 2026-04-25 13:42 | 28.50466 | -80.57345 | 16385 ft | 421 kts | 81° |
| 2026-04-25 13:42 | 28.50832 | -80.54016 | 17104 ft | 427 kts | 81° |
| 2026-04-25 13:42 | 28.51204 | -80.50638 | 17745 ft | 435 kts | 81° |
| 2026-04-25 13:42 | 28.51582 | -80.47196 | 18394 ft | 441 kts | 81° |
| 2026-04-25 13:43 | 28.51958 | -80.43764 | 19049 ft | 444 kts | 81° |
| 2026-04-25 13:43 | 28.52339 | -80.40267 | 19758 ft | 447 kts | 81° |
| 2026-04-25 13:43 | 28.52723 | -80.36743 | 20452 ft | 450 kts | 81° |
| 2026-04-25 13:43 | 28.53109 | -80.33191 | 21102 ft | 454 kts | 81° |
| 2026-04-25 13:44 | 28.53497 | -80.29613 | 21739 ft | 458 kts | 81° |
| 2026-04-25 13:44 | 28.53889 | -80.25994 | 22355 ft | 462 kts | 81° |
| 2026-04-25 13:44 | 28.54285 | -80.22349 | 22983 ft | 466 kts | 81° |
| 2026-04-25 13:44 | 28.54684 | -80.18678 | 23584 ft | 470 kts | 81° |
| 2026-04-25 13:45 | 28.55089 | -80.14975 | 24132 ft | 472 kts | 81° |
| 2026-04-25 13:45 | 28.55494 | -80.11262 | 24754 ft | 472 kts | 81° |
| 2026-04-25 13:45 | 28.55900 | -80.07548 | 25318 ft | 474 kts | 81° |
| 2026-04-25 13:45 | 28.56309 | -80.03816 | 25812 ft | 477 kts | 81° |
| 2026-04-25 13:46 | 28.56772 | -80.00112 | 26263 ft | 479 kts | 77° |
| 2026-04-25 13:46 | 28.57705 | -79.96473 | 26712 ft | 480 kts | 66° |
| 2026-04-25 13:46 | 28.59135 | -79.93047 | 27223 ft | 479 kts | 59° |
| 2026-04-25 13:46 | 28.60947 | -79.89865 | 27750 ft | 478 kts | 52° |
| 2026-04-25 13:47 | 28.62914 | -79.86797 | 28218 ft | 481 kts | 52° |
| 2026-04-25 13:47 | 28.64887 | -79.83704 | 28614 ft | 484 kts | 52° |
| 2026-04-25 13:47 | 28.66866 | -79.80574 | 29015 ft | 487 kts | 53° |
| 2026-04-25 13:47 | 28.68843 | -79.77425 | 29408 ft | 490 kts | 53° |
| 2026-04-25 13:48 | 28.70817 | -79.74261 | 29879 ft | 490 kts | 53° |
| 2026-04-25 13:48 | 28.72778 | -79.71105 | 30402 ft | 487 kts | 53° |
| 2026-04-25 13:48 | 28.74072 | -79.69018 | 30739 ft | 486 kts | 53° |
| 2026-04-25 13:48 | 28.76679 | -79.64810 | 31271 ft | 486 kts | 53° |
| 2026-04-25 13:49 | 28.78630 | -79.61660 | 31653 ft | 486 kts | 53° |
| 2026-04-25 13:49 | 28.80578 | -79.58512 | 32042 ft | 485 kts | 53° |
| 2026-04-25 13:49 | 28.82499 | -79.55406 | 32435 ft | 485 kts | 53° |
| 2026-04-25 13:49 | 28.84442 | -79.52264 | 32843 ft | 484 kts | 53° |
| 2026-04-25 13:50 | 28.86384 | -79.49120 | 33025 ft | 488 kts | 53° |
| 2026-04-25 13:50 | 28.90305 | -79.42767 | 32992 ft | 486 kts | 53° |
| 2026-04-25 13:51 | 28.94175 | -79.36485 | 33000 ft | 483 kts | 53° |
| 2026-04-25 13:51 | 28.98044 | -79.30206 | 32999 ft | 483 kts | 53° |
| 2026-04-25 13:52 | 29.01912 | -79.23923 | 32997 ft | 484 kts | 53° |
| 2026-04-25 13:52 | 29.05753 | -79.17662 | 32997 ft | 484 kts | 53° |
| 2026-04-25 13:53 | 29.09628 | -79.11332 | 33003 ft | 485 kts | 53° |
| 2026-04-25 13:53 | 29.13495 | -79.05006 | 33002 ft | 485 kts | 53° |
| 2026-04-25 13:54 | 29.17362 | -78.98669 | 33002 ft | 486 kts | 53° |
| 2026-04-25 13:54 | 29.21228 | -78.92325 | 32997 ft | 486 kts | 53° |
| 2026-04-25 13:55 | 29.25092 | -78.85975 | 33001 ft | 486 kts | 53° |
| 2026-04-25 13:55 | 29.28954 | -78.79617 | 33003 ft | 486 kts | 53° |
| 2026-04-25 13:56 | 29.32784 | -78.73304 | 33000 ft | 485 kts | 53° |
| 2026-04-25 13:56 | 29.36394 | -78.66751 | 33005 ft | 487 kts | 62° |
| 2026-04-25 13:57 | 29.38912 | -78.59541 | 33009 ft | 488 kts | 71° |
| 2026-04-25 13:57 | 29.40560 | -78.51974 | 32998 ft | 490 kts | 81° |
| 2026-04-25 13:58 | 29.41499 | -78.44225 | 33008 ft | 490 kts | 81° |
| 2026-04-25 13:58 | 29.42451 | -78.36475 | 33003 ft | 491 kts | 81° |
| 2026-04-25 13:59 | 29.43422 | -78.28766 | 33003 ft | 491 kts | 81° |
| 2026-04-25 13:59 | 29.44404 | -78.21009 | 33003 ft | 491 kts | 81° |
| 2026-04-25 14:00 | 29.45219 | -78.14554 | 33002 ft | 491 kts | 81° |
| 2026-04-25 14:00 | 29.46356 | -78.05477 | 33006 ft | 491 kts | 81° |
| 2026-04-25 14:01 | 29.47161 | -77.99018 | 33006 ft | 491 kts | 81° |
| 2026-04-25 14:01 | 29.48124 | -77.91255 | 33006 ft | 491 kts | 81° |
| 2026-04-25 14:02 | 29.49082 | -77.83494 | 33000 ft | 491 kts | 81° |
| 2026-04-25 14:02 | 29.50035 | -77.75740 | 33002 ft | 490 kts | 81° |
| 2026-04-25 14:03 | 29.50983 | -77.67989 | 33004 ft | 490 kts | 81° |
| 2026-04-25 14:03 | 29.51922 | -77.60285 | 33003 ft | 490 kts | 81° |
| 2026-04-25 14:04 | 29.52863 | -77.52538 | 33007 ft | 490 kts | 81° |
| 2026-04-25 14:04 | 29.53800 | -77.44783 | 33004 ft | 490 kts | 81° |
| 2026-04-25 14:05 | 29.54732 | -77.37026 | 33008 ft | 490 kts | 81° |
| 2026-04-25 14:05 | 29.55659 | -77.29269 | 33005 ft | 490 kts | 81° |
| 2026-04-25 14:06 | 29.56582 | -77.21507 | 33005 ft | 490 kts | 82° |
| 2026-04-25 14:06 | 29.57498 | -77.13768 | 33005 ft | 490 kts | 82° |
| 2026-04-25 14:07 | 29.58414 | -77.05993 | 33008 ft | 490 kts | 82° |
| 2026-04-25 14:07 | 29.59324 | -76.98225 | 33010 ft | 490 kts | 82° |
| 2026-04-25 14:08 | 29.60230 | -76.90455 | 33009 ft | 490 kts | 82° |
| 2026-04-25 14:08 | 29.60886 | -76.82706 | 33009 ft | 490 kts | 88° |
| 2026-04-25 14:09 | 29.61070 | -76.74867 | 33010 ft | 490 kts | 88° |
| 2026-04-25 14:09 | 29.61232 | -76.67018 | 33007 ft | 491 kts | 88° |
| 2026-04-25 14:10 | 29.61414 | -76.59179 | 33008 ft | 491 kts | 88° |
| 2026-04-25 14:10 | 29.61608 | -76.51337 | 33008 ft | 491 kts | 88° |
| 2026-04-25 14:11 | 29.61803 | -76.43483 | 33014 ft | 491 kts | 88° |
| 2026-04-25 14:11 | 29.61991 | -76.35642 | 33016 ft | 491 kts | 88° |
| 2026-04-25 14:12 | 29.62174 | -76.27779 | 33015 ft | 491 kts | 88° |
| 2026-04-25 14:12 | 29.62351 | -76.19979 | 33016 ft | 491 kts | 88° |
| 2026-04-25 14:13 | 29.62524 | -76.12131 | 33016 ft | 491 kts | 88° |
| 2026-04-25 14:13 | 29.62693 | -76.04289 | 33019 ft | 491 kts | 88° |
| 2026-04-25 14:14 | 29.62857 | -75.96437 | 33022 ft | 491 kts | 88° |
| 2026-04-25 14:14 | 29.63016 | -75.88641 | 33021 ft | 490 kts | 89° |
| 2026-04-25 14:15 | 29.63170 | -75.80801 | 33023 ft | 490 kts | 89° |
| 2026-04-25 14:15 | 29.63321 | -75.72953 | 33021 ft | 490 kts | 89° |
| 2026-04-25 14:16 | 29.63466 | -75.65114 | 33021 ft | 490 kts | 89° |
| 2026-04-25 14:16 | 29.63608 | -75.57283 | 33021 ft | 490 kts | 89° |
| 2026-04-25 14:17 | 29.63634 | -75.55824 | 33022 ft | 490 kts | 89° |
| 2026-04-25 14:17 | 29.63736 | -75.49907 | 33020 ft | 490 kts | 89° |
| 2026-04-25 14:18 | 29.63866 | -75.42136 | 33018 ft | 490 kts | 89° |
| 2026-04-25 14:18 | 29.63993 | -75.34307 | 33023 ft | 489 kts | 89° |
| 2026-04-25 14:19 | 29.64116 | -75.26475 | 33023 ft | 489 kts | 89° |
| 2026-04-25 14:19 | 29.64234 | -75.18656 | 33022 ft | 489 kts | 89° |
| 2026-04-25 14:20 | 29.64347 | -75.10833 | 33022 ft | 489 kts | 89° |
| 2026-04-25 14:20 | 29.64456 | -75.03009 | 33023 ft | 489 kts | 89° |
| 2026-04-25 14:21 | 29.64560 | -74.95191 | 33020 ft | 489 kts | 89° |
| 2026-04-25 14:21 | 29.64659 | -74.87376 | 33023 ft | 489 kts | 89° |
| 2026-04-25 14:22 | 29.64753 | -74.79601 | 33021 ft | 489 kts | 89° |
| 2026-04-25 14:22 | 29.64844 | -74.71785 | 33024 ft | 489 kts | 89° |
| 2026-04-25 14:23 | 29.64929 | -74.63964 | 33028 ft | 488 kts | 89° |
| 2026-04-25 14:23 | 29.65010 | -74.56158 | 33026 ft | 488 kts | 89° |
| 2026-04-25 14:24 | 29.65087 | -74.48351 | 33028 ft | 488 kts | 89° |
| 2026-04-25 14:24 | 29.65159 | -74.40537 | 33028 ft | 488 kts | 89° |
| 2026-04-25 14:25 | 29.65226 | -74.32733 | 33031 ft | 489 kts | 89° |
| 2026-04-25 14:25 | 29.65245 | -74.30420 | 33031 ft | 489 kts | 89° |
| 2026-04-25 14:26 | 29.65283 | -74.25699 | 33030 ft | 489 kts | 89° |
| 2026-04-25 14:26 | 29.65342 | -74.17871 | 33031 ft | 489 kts | 89° |
| 2026-04-25 14:27 | 29.65396 | -74.10059 | 33029 ft | 489 kts | 89° |
| 2026-04-25 14:27 | 29.65445 | -74.02271 | 33031 ft | 489 kts | 89° |
| 2026-04-25 14:28 | 29.65490 | -73.94451 | 33030 ft | 489 kts | 89° |
| 2026-04-25 14:28 | 29.65530 | -73.86621 | 33034 ft | 489 kts | 89° |
| 2026-04-25 14:29 | 29.65566 | -73.78782 | 33036 ft | 489 kts | 89° |
| 2026-04-25 14:29 | 29.65597 | -73.70958 | 33036 ft | 489 kts | 90° |
| 2026-04-25 14:30 | 29.65624 | -73.63183 | 33031 ft | 489 kts | 90° |
| 2026-04-25 14:30 | 29.65655 | -73.51439 | 33040 ft | 490 kts | 90° |
| 2026-04-25 14:31 | 29.65670 | -73.43606 | 33037 ft | 490 kts | 90° |
| 2026-04-25 14:31 | 29.65681 | -73.35764 | 33036 ft | 490 kts | 90° |
| 2026-04-25 14:32 | 29.65687 | -73.27928 | 33029 ft | 490 kts | 90° |
| 2026-04-25 14:32 | 29.65688 | -73.20084 | 33039 ft | 490 kts | 90° |
| 2026-04-25 14:33 | 29.65685 | -73.12281 | 33038 ft | 491 kts | 90° |
| 2026-04-25 14:33 | 29.65677 | -73.04422 | 33037 ft | 491 kts | 90° |
| 2026-04-25 14:34 | 29.65664 | -72.96556 | 33039 ft | 491 kts | 90° |
| 2026-04-25 14:34 | 29.65647 | -72.88702 | 33038 ft | 491 kts | 90° |
| 2026-04-25 14:35 | 29.65625 | -72.80854 | 33041 ft | 491 kts | 90° |
| 2026-04-25 14:35 | 29.65599 | -72.73047 | 33042 ft | 491 kts | 90° |
| 2026-04-25 14:36 | 29.65568 | -72.65183 | 33040 ft | 491 kts | 90° |
| 2026-04-25 14:36 | 29.65532 | -72.57327 | 33041 ft | 491 kts | 90° |
| 2026-04-25 14:37 | 29.65492 | -72.49477 | 33045 ft | 491 kts | 90° |
| 2026-04-25 14:37 | 29.65447 | -72.41619 | 33044 ft | 491 kts | 90° |
| 2026-04-25 14:38 | 29.65397 | -72.33762 | 33043 ft | 491 kts | 90° |
| 2026-04-25 14:38 | 29.65344 | -72.25954 | 33044 ft | 491 kts | 90° |
| 2026-04-25 14:39 | 29.65285 | -72.18103 | 33041 ft | 491 kts | 90° |
| 2026-04-25 14:39 | 29.65221 | -72.10245 | 33044 ft | 492 kts | 90° |
| 2026-04-25 14:40 | 29.65153 | -72.02380 | 33043 ft | 492 kts | 91° |
| 2026-04-25 14:40 | 29.65080 | -71.94501 | 33045 ft | 492 kts | 91° |
| 2026-04-25 14:41 | 29.65002 | -71.86621 | 33039 ft | 493 kts | 91° |
| 2026-04-25 14:41 | 29.64920 | -71.78742 | 33042 ft | 493 kts | 91° |
| 2026-04-25 14:42 | 29.64863 | -71.73517 | 33042 ft | 493 kts | 91° |
| 2026-04-25 14:42 | 29.64742 | -71.63014 | 33046 ft | 494 kts | 91° |
| 2026-04-25 14:43 | 29.64646 | -71.55122 | 33054 ft | 493 kts | 91° |
| 2026-04-25 14:43 | 29.64545 | -71.47252 | 33039 ft | 490 kts | 91° |
| 2026-04-25 14:44 | 29.64441 | -71.39439 | 33040 ft | 488 kts | 91° |
| 2026-04-25 14:44 | 29.64332 | -71.31649 | 33042 ft | 486 kts | 91° |
| 2026-04-25 14:45 | 29.64219 | -71.23884 | 33043 ft | 486 kts | 91° |
| 2026-04-25 14:45 | 29.64101 | -71.16117 | 33044 ft | 486 kts | 91° |
| 2026-04-25 14:46 | 29.63979 | -71.08394 | 33047 ft | 486 kts | 91° |
| 2026-04-25 14:46 | 29.63852 | -71.00604 | 33049 ft | 487 kts | 91° |
| 2026-04-25 14:47 | 29.63765 | -70.95382 | 33046 ft | 488 kts | 91° |
| 2026-04-25 14:47 | 29.63584 | -70.84992 | 33041 ft | 489 kts | 91° |
| 2026-04-25 14:48 | 29.63466 | -70.78440 | 33049 ft | 490 kts | 91° |
| 2026-04-25 14:48 | 29.63322 | -70.70656 | 33048 ft | 490 kts | 91° |
| 2026-04-25 14:49 | 29.63171 | -70.62809 | 33046 ft | 491 kts | 91° |
| 2026-04-25 14:49 | 29.63017 | -70.54965 | 33046 ft | 491 kts | 91° |
| 2026-04-25 14:50 | 29.62857 | -70.47117 | 33048 ft | 491 kts | 91° |
| 2026-04-25 14:50 | 29.62693 | -70.39269 | 33046 ft | 491 kts | 91° |
| 2026-04-25 14:51 | 29.62524 | -70.31409 | 33047 ft | 492 kts | 91° |
| 2026-04-25 14:51 | 29.62351 | -70.23593 | 33052 ft | 492 kts | 91° |
| 2026-04-25 14:52 | 29.62173 | -70.15725 | 33040 ft | 493 kts | 91° |
| 2026-04-25 14:52 | 29.62019 | -70.09115 | 33049 ft | 495 kts | 91° |
| 2026-04-25 14:53 | 29.61800 | -69.99904 | 33048 ft | 497 kts | 91° |
| 2026-04-25 14:53 | 29.61605 | -69.91949 | 33055 ft | 498 kts | 91° |
| 2026-04-25 14:54 | 29.61406 | -69.83987 | 33048 ft | 499 kts | 92° |
| 2026-04-25 14:54 | 29.61201 | -69.75994 | 33056 ft | 500 kts | 92° |
| 2026-04-25 14:55 | 29.60991 | -69.67985 | 33057 ft | 502 kts | 92° |
| 2026-04-25 14:55 | 29.60776 | -69.60014 | 33055 ft | 502 kts | 92° |
| 2026-04-25 14:56 | 29.60556 | -69.51980 | 33056 ft | 503 kts | 92° |
| 2026-04-25 14:56 | 29.60330 | -69.43954 | 33057 ft | 497 kts | 91° |
| 2026-04-25 14:57 | 29.60105 | -69.36094 | 33051 ft | 489 kts | 91° |
| 2026-04-25 14:57 | 29.59876 | -69.28248 | 33065 ft | 492 kts | 92° |
| 2026-04-25 14:58 | 29.59643 | -69.20423 | 33058 ft | 494 kts | 92° |
| 2026-04-25 14:58 | 29.59402 | -69.12494 | 33058 ft | 498 kts | 92° |
| 2026-04-25 14:59 | 29.59154 | -69.04517 | 33065 ft | 501 kts | 92° |
| 2026-04-25 14:59 | 29.58900 | -68.96490 | 33062 ft | 504 kts | 92° |
| 2026-04-25 15:00 | 29.58640 | -68.88436 | 33058 ft | 504 kts | 92° |
| 2026-04-25 15:00 | 29.58377 | -68.80386 | 33048 ft | 506 kts | 93° |
| 2026-04-25 15:01 | 29.58105 | -68.72287 | 33067 ft | 508 kts | 93° |
| 2026-04-25 15:01 | 29.57829 | -68.64205 | 33064 ft | 510 kts | 93° |
| 2026-04-25 15:02 | 29.57546 | -68.56035 | 33055 ft | 511 kts | 93° |
| 2026-04-25 15:02 | 29.57258 | -68.47861 | 33046 ft | 513 kts | 93° |
| 2026-04-25 15:03 | 29.56964 | -68.39659 | 33065 ft | 515 kts | 93° |
| 2026-04-25 15:03 | 29.56663 | -68.31421 | 33064 ft | 516 kts | 93° |
| 2026-04-25 15:04 | 29.56357 | -68.23174 | 33052 ft | 517 kts | 94° |
| 2026-04-25 15:04 | 29.56047 | -68.14964 | 33045 ft | 518 kts | 94° |
| 2026-04-25 15:05 | 29.55729 | -68.06690 | 33063 ft | 519 kts | 94° |
| 2026-04-25 15:06 | 29.55241 | -67.94228 | 33058 ft | 521 kts | 94° |
| 2026-04-25 15:06 | 29.54909 | -67.85898 | 33058 ft | 521 kts | 94° |
| 2026-04-25 15:07 | 29.54571 | -67.77572 | 33056 ft | 521 kts | 94° |
| 2026-04-25 15:07 | 29.54229 | -67.69260 | 33060 ft | 521 kts | 94° |
| 2026-04-25 15:08 | 29.53882 | -67.60965 | 33057 ft | 520 kts | 94° |
| 2026-04-25 15:08 | 29.53533 | -67.52725 | 33044 ft | 520 kts | 94° |
| 2026-04-25 15:09 | 29.53175 | -67.44422 | 33080 ft | 521 kts | 94° |
| 2026-04-25 15:09 | 29.52629 | -67.31962 | 33054 ft | 520 kts | 94° |
| 2026-04-25 15:10 | 29.52259 | -67.23672 | 33056 ft | 518 kts | 94° |
| 2026-04-25 15:11 | 29.51698 | -67.11310 | 33058 ft | 519 kts | 95° |
| 2026-04-25 15:11 | 29.51314 | -67.03010 | 33061 ft | 522 kts | 95° |
| 2026-04-25 15:12 | 29.50727 | -66.90497 | 33055 ft | 524 kts | 95° |
| 2026-04-25 15:12 | 29.50460 | -66.84901 | 33049 ft | 525 kts | 95° |
| 2026-04-25 15:13 | 29.49715 | -66.69508 | 33061 ft | 528 kts | 95° |
| 2026-04-25 15:14 | 29.49299 | -66.61081 | 33049 ft | 529 kts | 95° |
| 2026-04-25 15:14 | 29.48881 | -66.52696 | 33045 ft | 529 kts | 95° |
| 2026-04-25 15:15 | 29.48454 | -66.44259 | 33059 ft | 529 kts | 96° |
| 2026-04-25 15:15 | 29.48021 | -66.35810 | 33057 ft | 530 kts | 96° |
| 2026-04-25 15:16 | 29.47583 | -66.27359 | 33058 ft | 530 kts | 96° |
| 2026-04-25 15:16 | 29.46918 | -66.14735 | 33058 ft | 530 kts | 96° |
| 2026-04-25 15:17 | 29.46239 | -66.02067 | 33054 ft | 530 kts | 96° |
| 2026-04-25 15:18 | 29.45780 | -65.93626 | 33054 ft | 529 kts | 96° |
| 2026-04-25 15:18 | 29.45082 | -65.80975 | 33055 ft | 530 kts | 96° |
| 2026-04-25 15:19 | 29.44770 | -65.75391 | 33054 ft | 530 kts | 96° |
| 2026-04-25 15:19 | 29.44136 | -65.64166 | 33055 ft | 530 kts | 96° |
| 2026-04-25 15:20 | 29.43653 | -65.55719 | 33047 ft | 530 kts | 96° |
| 2026-04-25 15:20 | 29.43163 | -65.47273 | 33064 ft | 531 kts | 96° |
| 2026-04-25 15:21 | 29.42668 | -65.38828 | 33053 ft | 531 kts | 96° |
| 2026-04-25 15:21 | 29.42169 | -65.30373 | 33055 ft | 530 kts | 96° |
| 2026-04-25 15:22 | 29.41664 | -65.21933 | 33046 ft | 531 kts | 97° |
| 2026-04-25 15:22 | 29.41153 | -65.13483 | 33054 ft | 531 kts | 97° |
| 2026-04-25 15:23 | 29.40637 | -65.05029 | 33049 ft | 531 kts | 97° |
| 2026-04-25 15:23 | 29.40115 | -64.96576 | 33033 ft | 532 kts | 97° |
| 2026-04-25 15:24 | 29.39589 | -64.88146 | 33050 ft | 535 kts | 97° |
| 2026-04-25 15:24 | 29.39230 | -64.82448 | 33058 ft | 536 kts | 97° |
| 2026-04-25 15:25 | 29.38506 | -64.71049 | 33052 ft | 539 kts | 97° |
| 2026-04-25 15:25 | 29.37955 | -64.62467 | 33049 ft | 539 kts | 97° |
| 2026-04-25 15:26 | 29.37398 | -64.53872 | 33048 ft | 539 kts | 97° |
| 2026-04-25 15:26 | 29.36836 | -64.45301 | 33047 ft | 538 kts | 97° |
| 2026-04-25 15:27 | 29.36270 | -64.36750 | 33048 ft | 537 kts | 98° |
| 2026-04-25 15:28 | 29.35412 | -64.23970 | 33053 ft | 540 kts | 98° |
| 2026-04-25 15:28 | 29.34826 | -64.15342 | 33055 ft | 543 kts | 98° |
| 2026-04-25 15:29 | 29.34232 | -64.06679 | 33052 ft | 545 kts | 98° |
| 2026-04-25 15:29 | 29.33636 | -63.98041 | 33038 ft | 549 kts | 99° |
| 2026-04-25 15:30 | 29.33025 | -63.89292 | 33050 ft | 552 kts | 99° |
| 2026-04-25 15:30 | 29.32405 | -63.80508 | 33052 ft | 554 kts | 99° |
| 2026-04-25 15:31 | 29.31780 | -63.71697 | 33041 ft | 555 kts | 99° |
| 2026-04-25 15:31 | 29.31146 | -63.62865 | 33047 ft | 557 kts | 99° |
| 2026-04-25 15:32 | 29.30506 | -63.54029 | 33044 ft | 555 kts | 99° |
| 2026-04-25 15:32 | 29.29865 | -63.45240 | 33036 ft | 551 kts | 99° |
| 2026-04-25 15:33 | 29.28899 | -63.32170 | 33046 ft | 552 kts | 100° |
| 2026-04-25 15:33 | 29.28238 | -63.23377 | 33052 ft | 555 kts | 100° |
| 2026-04-25 15:34 | 29.27679 | -63.15972 | 33047 ft | 558 kts | 100° |
| 2026-04-25 15:34 | 29.27119 | -63.08599 | 33032 ft | 560 kts | 100° |
| 2026-04-25 15:35 | 29.25981 | -62.93763 | 33040 ft | 564 kts | 100° |
| 2026-04-25 15:36 | 29.24937 | -62.80333 | 33022 ft | 564 kts | 101° |
| 2026-04-25 15:36 | 29.24232 | -62.71374 | 33036 ft | 565 kts | 101° |
| 2026-04-25 15:37 | 29.23520 | -62.62405 | 33040 ft | 566 kts | 101° |
| 2026-04-25 15:37 | 29.22806 | -62.53485 | 33040 ft | 566 kts | 101° |
| 2026-04-25 15:38 | 29.22080 | -62.44501 | 33035 ft | 566 kts | 101° |
| 2026-04-25 15:38 | 29.21498 | -62.37342 | 33035 ft | 567 kts | 101° |
| 2026-04-25 15:39 | 29.20762 | -62.28348 | 33046 ft | 567 kts | 101° |
| 2026-04-25 15:39 | 29.20018 | -62.19353 | 33040 ft | 567 kts | 100° |
| 2026-04-25 15:40 | 29.19398 | -62.11893 | 33042 ft | 566 kts | 101° |
| 2026-04-25 15:40 | 29.18525 | -62.01480 | 33039 ft | 565 kts | 101° |
| 2026-04-25 15:41 | 29.17767 | -61.92528 | 33044 ft | 564 kts | 101° |
| 2026-04-25 15:41 | 29.17006 | -61.83618 | 33039 ft | 562 kts | 101° |
| 2026-04-25 15:42 | 29.16242 | -61.74732 | 33048 ft | 562 kts | 101° |
| 2026-04-25 15:42 | 29.15467 | -61.65808 | 33031 ft | 563 kts | 101° |
| 2026-04-25 15:43 | 29.14688 | -61.56886 | 33038 ft | 564 kts | 101° |
| 2026-04-25 15:43 | 29.13902 | -61.47959 | 33046 ft | 564 kts | 101° |
| 2026-04-25 15:44 | 29.13108 | -61.39010 | 33036 ft | 565 kts | 101° |
| 2026-04-25 15:44 | 29.12313 | -61.30113 | 33027 ft | 565 kts | 101° |
| 2026-04-25 15:45 | 29.11507 | -61.21164 | 33027 ft | 565 kts | 101° |
| 2026-04-25 15:45 | 29.10833 | -61.13721 | 33031 ft | 565 kts | 101° |
| 2026-04-25 15:46 | 29.09878 | -61.03270 | 33023 ft | 565 kts | 101° |
| 2026-04-25 15:46 | 29.09062 | -60.94404 | 33035 ft | 562 kts | 101° |
| 2026-04-25 15:47 | 29.08240 | -60.85523 | 33033 ft | 559 kts | 101° |
| 2026-04-25 15:47 | 29.07415 | -60.76695 | 33030 ft | 557 kts | 101° |
| 2026-04-25 15:48 | 29.06585 | -60.67888 | 33028 ft | 555 kts | 100° |
| 2026-04-25 15:48 | 29.05755 | -60.59125 | 33033 ft | 554 kts | 100° |
| 2026-04-25 15:49 | 29.04918 | -60.50363 | 33034 ft | 554 kts | 100° |
| 2026-04-25 15:49 | 29.04075 | -60.41602 | 33023 ft | 555 kts | 100° |
| 2026-04-25 15:50 | 29.03224 | -60.32813 | 33039 ft | 558 kts | 100° |
| 2026-04-25 15:50 | 29.02369 | -60.24031 | 33040 ft | 561 kts | 100° |
| 2026-04-25 15:51 | 29.01641 | -60.16599 | 33037 ft | 563 kts | 100° |
| 2026-04-25 15:51 | 29.00619 | -60.06232 | 33037 ft | 566 kts | 101° |
| 2026-04-25 15:52 | 28.99925 | -59.97247 | 33038 ft | 571 kts | 93° |
| 2026-04-25 15:52 | 29.00023 | -59.88179 | 33014 ft | 568 kts | 91° |
| 2026-04-25 15:53 | 29.00189 | -59.79146 | 33028 ft | 568 kts | 92° |
| 2026-04-25 15:53 | 29.00305 | -59.70176 | 33034 ft | 569 kts | 92° |
| 2026-04-25 15:54 | 29.00383 | -59.61113 | 33030 ft | 571 kts | 92° |
| 2026-04-25 15:54 | 29.00447 | -59.52017 | 33025 ft | 573 kts | 92° |
| 2026-04-25 15:55 | 29.00509 | -59.42894 | 33028 ft | 575 kts | 92° |
| 2026-04-25 15:55 | 29.00569 | -59.33760 | 33028 ft | 576 kts | 92° |
| 2026-04-25 15:56 | 29.00624 | -59.24662 | 33020 ft | 575 kts | 92° |
| 2026-04-25 15:56 | 29.00673 | -59.15523 | 33023 ft | 574 kts | 93° |
| 2026-04-25 15:57 | 29.00714 | -59.06394 | 33024 ft | 573 kts | 93° |
| 2026-04-25 15:57 | 29.00749 | -58.97288 | 33029 ft | 573 kts | 93° |
| 2026-04-25 15:58 | 29.00777 | -58.88171 | 33026 ft | 573 kts | 93° |
| 2026-04-25 15:58 | 29.00800 | -58.79111 | 33023 ft | 573 kts | 93° |
| 2026-04-25 15:59 | 29.00816 | -58.70002 | 33023 ft | 573 kts | 93° |
| 2026-04-25 15:59 | 29.00827 | -58.60884 | 33021 ft | 573 kts | 93° |
| 2026-04-25 16:00 | 29.00830 | -58.54794 | 33022 ft | 574 kts | 93° |
| 2026-04-25 16:00 | 29.00829 | -58.42663 | 33020 ft | 573 kts | 93° |
| 2026-04-25 16:01 | 29.00822 | -58.33567 | 33021 ft | 572 kts | 93° |
| 2026-04-25 16:01 | 29.00808 | -58.24478 | 33020 ft | 571 kts | 93° |
| 2026-04-25 16:02 | 29.00788 | -58.15463 | 33024 ft | 570 kts | 93° |
| 2026-04-25 16:02 | 29.00761 | -58.06410 | 33043 ft | 570 kts | 93° |
| 2026-04-25 16:03 | 29.00729 | -57.97352 | 33023 ft | 571 kts | 93° |
| 2026-04-25 16:03 | 29.00690 | -57.88257 | 33017 ft | 572 kts | 93° |
| 2026-04-25 16:04 | 29.00646 | -57.79164 | 33020 ft | 570 kts | 93° |
| 2026-04-25 16:04 | 29.00599 | -57.70208 | 33013 ft | 560 kts | 93° |
| 2026-04-25 16:05 | 29.00538 | -57.61223 | 33029 ft | 577 kts | 93° |
| 2026-04-25 16:06 | 29.00442 | -57.47533 | 33010 ft | 571 kts | 93° |
| 2026-04-25 16:06 | 29.00373 | -57.38495 | 33012 ft | 568 kts | 94° |
| 2026-04-25 16:07 | 29.00295 | -57.29487 | 33012 ft | 565 kts | 93° |
| 2026-04-25 16:07 | 29.00211 | -57.20504 | 33017 ft | 565 kts | 93° |
| 2026-04-25 16:08 | 29.00122 | -57.11512 | 33018 ft | 566 kts | 93° |
| 2026-04-25 16:08 | 29.00029 | -57.02571 | 33022 ft | 566 kts | 93° |
| 2026-04-25 16:09 | 29.00032 | -56.93561 | 33016 ft | 568 kts | 90° |
| 2026-04-25 16:09 | 29.00300 | -56.84521 | 33018 ft | 568 kts | 89° |
| 2026-04-25 16:10 | 29.00596 | -56.75499 | 33015 ft | 568 kts | 90° |
| 2026-04-25 16:10 | 29.00839 | -56.66469 | 33016 ft | 568 kts | 90° |
| 2026-04-25 16:11 | 29.01046 | -56.57445 | 32997 ft | 568 kts | 90° |
| 2026-04-25 16:11 | 29.01241 | -56.48421 | 33011 ft | 567 kts | 91° |
| 2026-04-25 16:12 | 29.01432 | -56.39476 | 33020 ft | 566 kts | 91° |
| 2026-04-25 16:12 | 29.01622 | -56.30484 | 33023 ft | 566 kts | 90° |
| 2026-04-25 16:13 | 29.01807 | -56.21419 | 33025 ft | 572 kts | 90° |
| 2026-04-25 16:13 | 29.01987 | -56.12354 | 33011 ft | 573 kts | 90° |
| 2026-04-25 16:14 | 29.02162 | -56.03236 | 33013 ft | 573 kts | 91° |
| 2026-04-25 16:14 | 29.02330 | -55.94133 | 33006 ft | 572 kts | 91° |
| 2026-04-25 16:15 | 29.02491 | -55.85036 | 33008 ft | 572 kts | 91° |
| 2026-04-25 16:15 | 29.02646 | -55.75954 | 33007 ft | 571 kts | 91° |
| 2026-04-25 16:16 | 29.02794 | -55.66938 | 33003 ft | 570 kts | 91° |
| 2026-04-25 16:16 | 29.02937 | -55.57863 | 33013 ft | 569 kts | 91° |
| 2026-04-25 16:17 | 29.03072 | -55.48873 | 33019 ft | 569 kts | 91° |
| 2026-04-25 16:17 | 29.03202 | -55.39809 | 33007 ft | 570 kts | 91° |
| 2026-04-25 16:18 | 29.03326 | -55.30786 | 33009 ft | 571 kts | 91° |
| 2026-04-25 16:18 | 29.03445 | -55.21707 | 33001 ft | 572 kts | 91° |
| 2026-04-25 16:19 | 29.03558 | -55.12618 | 33006 ft | 572 kts | 91° |
| 2026-04-25 16:19 | 29.03564 | -55.12068 | 33005 ft | 572 kts | 91° |
| 2026-04-25 16:20 | 29.03652 | -55.04618 | 33008 ft | 571 kts | 91° |
| 2026-04-25 16:21 | 29.03801 | -54.90998 | 33002 ft | 569 kts | 91° |
| 2026-04-25 16:21 | 29.03893 | -54.81956 | 33009 ft | 568 kts | 91° |
| 2026-04-25 16:22 | 29.03978 | -54.72937 | 33011 ft | 567 kts | 91° |
| 2026-04-25 16:22 | 29.04057 | -54.63909 | 33007 ft | 567 kts | 91° |
| 2026-04-25 16:23 | 29.04129 | -54.54895 | 33004 ft | 568 kts | 91° |
| 2026-04-25 16:23 | 29.04197 | -54.45871 | 33006 ft | 568 kts | 91° |
| 2026-04-25 16:24 | 29.04257 | -54.36880 | 33004 ft | 568 kts | 91° |
| 2026-04-25 16:24 | 29.04313 | -54.27847 | 32998 ft | 568 kts | 91° |
| 2026-04-25 16:25 | 29.04362 | -54.18820 | 33001 ft | 568 kts | 91° |
| 2026-04-25 16:25 | 29.04405 | -54.09786 | 33001 ft | 568 kts | 91° |
| 2026-04-25 16:26 | 29.04441 | -54.00819 | 33011 ft | 568 kts | 91° |
| 2026-04-25 16:26 | 29.04472 | -53.91773 | 33008 ft | 568 kts | 91° |
| 2026-04-25 16:27 | 29.04497 | -53.82729 | 33010 ft | 569 kts | 91° |
| 2026-04-25 16:27 | 29.04516 | -53.73733 | 32985 ft | 569 kts | 92° |
| 2026-04-25 16:28 | 29.04529 | -53.64714 | 32999 ft | 567 kts | 92° |
| 2026-04-25 16:28 | 29.04536 | -53.55708 | 32993 ft | 565 kts | 92° |
| 2026-04-25 16:29 | 29.04537 | -53.46719 | 32996 ft | 564 kts | 92° |
| 2026-04-25 16:29 | 29.04532 | -53.37754 | 33007 ft | 564 kts | 92° |
| 2026-04-25 16:30 | 29.04520 | -53.28802 | 32996 ft | 564 kts | 92° |
| 2026-04-25 16:30 | 29.04503 | -53.19854 | 33013 ft | 564 kts | 92° |
| 2026-04-25 16:31 | 29.04482 | -53.11762 | 33010 ft | 565 kts | 92° |
| 2026-04-25 16:31 | 29.04454 | -53.02764 | 33008 ft | 566 kts | 92° |
| 2026-04-25 16:32 | 29.04420 | -52.93750 | 33000 ft | 567 kts | 92° |
| 2026-04-25 16:32 | 29.04380 | -52.84802 | 33007 ft | 567 kts | 92° |
| 2026-04-25 16:33 | 29.04333 | -52.75782 | 32982 ft | 567 kts | 92° |
| 2026-04-25 16:33 | 29.04281 | -52.66779 | 33004 ft | 566 kts | 92° |
| 2026-04-25 16:34 | 29.04222 | -52.57781 | 32993 ft | 566 kts | 92° |
| 2026-04-25 16:34 | 29.04158 | -52.48795 | 33001 ft | 565 kts | 92° |
| 2026-04-25 16:35 | 29.04087 | -52.39795 | 33007 ft | 565 kts | 92° |
| 2026-04-25 16:35 | 29.04011 | -52.30856 | 32993 ft | 566 kts | 92° |
| 2026-04-25 16:36 | 29.03929 | -52.21847 | 32987 ft | 565 kts | 92° |
| 2026-04-25 16:36 | 29.03841 | -52.12876 | 32999 ft | 565 kts | 92° |
| 2026-04-25 16:37 | 29.03746 | -52.03888 | 32993 ft | 565 kts | 92° |
| 2026-04-25 16:37 | 29.03646 | -51.94894 | 32998 ft | 565 kts | 92° |
| 2026-04-25 16:38 | 29.03540 | -51.85967 | 33000 ft | 565 kts | 92° |
| 2026-04-25 16:38 | 29.03428 | -51.76991 | 32990 ft | 565 kts | 92° |
| 2026-04-25 16:39 | 29.03330 | -51.69514 | 33005 ft | 566 kts | 92° |
| 2026-04-25 16:39 | 29.03186 | -51.59003 | 32997 ft | 566 kts | 92° |
| 2026-04-25 16:40 | 29.03055 | -51.50003 | 32993 ft | 565 kts | 92° |
| 2026-04-25 16:40 | 29.02920 | -51.41067 | 33005 ft | 565 kts | 92° |
| 2026-04-25 16:41 | 29.02778 | -51.32073 | 32992 ft | 565 kts | 92° |
| 2026-04-25 16:41 | 29.02554 | -51.18606 | 33002 ft | 565 kts | 92° |
| 2026-04-25 16:42 | 29.02397 | -51.09632 | 33003 ft | 565 kts | 92° |
| 2026-04-25 16:42 | 29.02235 | -51.00710 | 33011 ft | 565 kts | 92° |
| 2026-04-25 16:43 | 29.02066 | -50.91723 | 33001 ft | 566 kts | 92° |
| 2026-04-25 16:43 | 29.01891 | -50.82744 | 32996 ft | 565 kts | 92° |
| 2026-04-25 16:44 | 29.01710 | -50.73752 | 33003 ft | 565 kts | 92° |
| 2026-04-25 16:44 | 29.01524 | -50.64776 | 33002 ft | 565 kts | 92° |
| 2026-04-25 16:45 | 29.01331 | -50.55794 | 33003 ft | 565 kts | 92° |
| 2026-04-25 16:45 | 29.01132 | -50.46810 | 33003 ft | 565 kts | 92° |
| 2026-04-25 16:46 | 29.00928 | -50.37886 | 32988 ft | 565 kts | 92° |
| 2026-04-25 16:46 | 29.00788 | -50.31884 | 33011 ft | 566 kts | 92° |
| 2026-04-25 16:47 | 29.00501 | -50.19900 | 33007 ft | 566 kts | 92° |
| 2026-04-25 16:47 | 29.00278 | -50.10909 | 33005 ft | 566 kts | 92° |
| 2026-04-25 16:48 | 29.00050 | -50.01917 | 33006 ft | 566 kts | 93° |
| 2026-04-25 16:48 | 28.99964 | -49.92915 | 33005 ft | 566 kts | 90° |
| 2026-04-25 16:49 | 29.00184 | -49.83925 | 33009 ft | 566 kts | 88° |
| 2026-04-25 16:49 | 29.00424 | -49.75002 | 33007 ft | 566 kts | 89° |
| 2026-04-25 16:50 | 29.00575 | -49.67529 | 33001 ft | 565 kts | 89° |
| 2026-04-25 16:50 | 29.00737 | -49.57029 | 33012 ft | 565 kts | 90° |
| 2026-04-25 16:51 | 29.00863 | -49.48055 | 33000 ft | 564 kts | 90° |
| 2026-04-25 16:51 | 29.00946 | -49.42114 | 33009 ft | 564 kts | 90° |
| 2026-04-25 16:52 | 29.01111 | -49.30180 | 32998 ft | 564 kts | 89° |
| 2026-04-25 16:52 | 29.01228 | -49.21201 | 33015 ft | 564 kts | 90° |
| 2026-04-25 16:53 | 29.01392 | -49.07761 | 33006 ft | 564 kts | 89° |
| 2026-04-25 16:54 | 29.01494 | -48.98811 | 33014 ft | 563 kts | 89° |
| 2026-04-25 16:54 | 29.01589 | -48.89867 | 33013 ft | 563 kts | 89° |
| 2026-04-25 16:55 | 29.01679 | -48.80925 | 33018 ft | 562 kts | 90° |
| 2026-04-25 16:55 | 29.01762 | -48.72050 | 33018 ft | 562 kts | 90° |
| 2026-04-25 16:56 | 29.01840 | -48.63123 | 33007 ft | 562 kts | 90° |
| 2026-04-25 16:56 | 29.01912 | -48.54187 | 33044 ft | 562 kts | 89° |
| 2026-04-25 16:57 | 29.01978 | -48.45246 | 33023 ft | 563 kts | 90° |
| 2026-04-25 16:57 | 29.02038 | -48.36302 | 33018 ft | 562 kts | 89° |
| 2026-04-25 16:58 | 29.02092 | -48.27362 | 33022 ft | 562 kts | 89° |
| 2026-04-25 16:58 | 29.02140 | -48.18420 | 33022 ft | 562 kts | 89° |
| 2026-04-25 16:59 | 29.02182 | -48.09536 | 33027 ft | 562 kts | 90° |
| 2026-04-25 16:59 | 29.02219 | -48.00600 | 33010 ft | 562 kts | 90° |
| 2026-04-25 17:00 | 29.02249 | -47.91658 | 33032 ft | 562 kts | 90° |
| 2026-04-25 17:00 | 29.02273 | -47.82715 | 33032 ft | 563 kts | 90° |
| 2026-04-25 17:01 | 29.02292 | -47.73785 | 33028 ft | 562 kts | 90° |
| 2026-04-25 17:01 | 29.02305 | -47.64845 | 33031 ft | 562 kts | 90° |
| 2026-04-25 17:02 | 29.02312 | -47.55909 | 33027 ft | 562 kts | 90° |
| 2026-04-25 17:02 | 29.02313 | -47.46969 | 33036 ft | 562 kts | 90° |
| 2026-04-25 17:03 | 29.02308 | -47.38036 | 33037 ft | 563 kts | 90° |
| 2026-04-25 17:03 | 29.02297 | -47.29086 | 33035 ft | 562 kts | 90° |
| 2026-04-25 17:04 | 29.02280 | -47.20151 | 33038 ft | 562 kts | 90° |
| 2026-04-25 17:04 | 29.02262 | -47.12736 | 33030 ft | 562 kts | 90° |
| 2026-04-25 17:05 | 29.02235 | -47.03850 | 33046 ft | 561 kts | 90° |
| 2026-04-25 17:05 | 29.02182 | -46.90461 | 33039 ft | 561 kts | 90° |
| 2026-04-25 17:06 | 29.02140 | -46.81543 | 33046 ft | 562 kts | 90° |
| 2026-04-25 17:06 | 29.02092 | -46.72617 | 33048 ft | 562 kts | 90° |
| 2026-04-25 17:07 | 29.02037 | -46.63690 | 33047 ft | 561 kts | 90° |
| 2026-04-25 17:07 | 29.01977 | -46.54772 | 33039 ft | 561 kts | 90° |
| 2026-04-25 17:08 | 29.01912 | -46.45853 | 33047 ft | 561 kts | 90° |
| 2026-04-25 17:08 | 29.01840 | -46.36942 | 33050 ft | 561 kts | 90° |
| 2026-04-25 17:09 | 29.01762 | -46.28029 | 33059 ft | 561 kts | 90° |
| 2026-04-25 17:09 | 29.01679 | -46.19158 | 33050 ft | 561 kts | 90° |
| 2026-04-25 17:10 | 29.01590 | -46.10241 | 33050 ft | 560 kts | 90° |
| 2026-04-25 17:10 | 29.01495 | -46.01343 | 33056 ft | 560 kts | 90° |
| 2026-04-25 17:11 | 29.01395 | -45.92495 | 33049 ft | 560 kts | 90° |
| 2026-04-25 17:11 | 29.01288 | -45.83602 | 33066 ft | 560 kts | 90° |
| 2026-04-25 17:12 | 29.01175 | -45.74704 | 33058 ft | 560 kts | 90° |
| 2026-04-25 17:12 | 29.01057 | -45.65803 | 33060 ft | 560 kts | 90° |
| 2026-04-25 17:13 | 29.00954 | -45.58407 | 33058 ft | 560 kts | 90° |
| 2026-04-25 17:13 | 29.00803 | -45.48023 | 33064 ft | 559 kts | 90° |
| 2026-04-25 17:14 | 29.00667 | -45.39132 | 33062 ft | 559 kts | 90° |
| 2026-04-25 17:14 | 29.00526 | -45.30302 | 33064 ft | 559 kts | 90° |
| 2026-04-25 17:15 | 29.00379 | -45.21422 | 33066 ft | 559 kts | 90° |
| 2026-04-25 17:15 | 29.00226 | -45.12526 | 33058 ft | 559 kts | 90° |
| 2026-04-25 17:16 | 28.99904 | -45.03644 | 33061 ft | 559 kts | 97° |
| 2026-04-25 17:16 | 28.98404 | -44.94957 | 33079 ft | 557 kts | 108° |
| 2026-04-25 17:17 | 28.95832 | -44.86642 | 33072 ft | 555 kts | 113° |
| 2026-04-25 17:17 | 28.93103 | -44.78402 | 33068 ft | 555 kts | 113° |
| 2026-04-25 17:18 | 28.90420 | -44.70189 | 33072 ft | 555 kts | 112° |
| 2026-04-25 17:18 | 28.87748 | -44.61912 | 33077 ft | 556 kts | 112° |
| 2026-04-25 17:19 | 28.85078 | -44.53625 | 33049 ft | 556 kts | 112° |
| 2026-04-25 17:19 | 28.82418 | -44.45401 | 33074 ft | 556 kts | 112° |
| 2026-04-25 17:20 | 28.79734 | -44.37134 | 33084 ft | 556 kts | 112° |
| 2026-04-25 17:20 | 28.77038 | -44.28854 | 33076 ft | 557 kts | 112° |
| 2026-04-25 17:21 | 28.74339 | -44.20584 | 33077 ft | 556 kts | 112° |
| 2026-04-25 17:21 | 28.71638 | -44.12324 | 33080 ft | 557 kts | 112° |
| 2026-04-25 17:22 | 28.69385 | -44.05450 | 33079 ft | 557 kts | 112° |
| 2026-04-25 17:22 | 28.66211 | -43.95787 | 33068 ft | 557 kts | 112° |
| 2026-04-25 17:23 | 28.63490 | -43.87525 | 33080 ft | 557 kts | 112° |
| 2026-04-25 17:23 | 28.60763 | -43.79266 | 33093 ft | 557 kts | 112° |
| 2026-04-25 17:24 | 28.58049 | -43.71062 | 33086 ft | 557 kts | 112° |
| 2026-04-25 17:24 | 28.55312 | -43.62811 | 33090 ft | 557 kts | 112° |
| 2026-04-25 17:25 | 28.52570 | -43.54563 | 33082 ft | 557 kts | 112° |
| 2026-04-25 17:25 | 28.49819 | -43.46308 | 33084 ft | 558 kts | 112° |
| 2026-04-25 17:26 | 28.47064 | -43.38062 | 33074 ft | 558 kts | 112° |
| 2026-04-25 17:26 | 28.44305 | -43.29819 | 33094 ft | 558 kts | 112° |
| 2026-04-25 17:27 | 28.41541 | -43.21584 | 33093 ft | 558 kts | 112° |
| 2026-04-25 17:27 | 28.39704 | -43.16120 | 33095 ft | 558 kts | 112° |
| 2026-04-25 17:28 | 28.36011 | -43.05162 | 33081 ft | 558 kts | 112° |
| 2026-04-25 17:28 | 28.33228 | -42.96926 | 33102 ft | 558 kts | 113° |
| 2026-04-25 17:29 | 28.30440 | -42.88692 | 33092 ft | 559 kts | 113° |
| 2026-04-25 17:29 | 28.27650 | -42.80474 | 33088 ft | 558 kts | 113° |
| 2026-04-25 17:30 | 28.24869 | -42.72298 | 33090 ft | 558 kts | 113° |
| 2026-04-25 17:30 | 28.22064 | -42.64073 | 33098 ft | 559 kts | 113° |
| 2026-04-25 17:31 | 28.19254 | -42.55852 | 33109 ft | 559 kts | 113° |
| 2026-04-25 17:31 | 28.16438 | -42.47631 | 33101 ft | 559 kts | 113° |
| 2026-04-25 17:32 | 28.13614 | -42.39404 | 33099 ft | 559 kts | 113° |
| 2026-04-25 17:32 | 28.10809 | -42.31253 | 33100 ft | 559 kts | 113° |
| 2026-04-25 17:33 | 28.07983 | -42.23056 | 33101 ft | 558 kts | 113° |
| 2026-04-25 17:33 | 28.05154 | -42.14870 | 33099 ft | 558 kts | 113° |
| 2026-04-25 17:34 | 28.02323 | -42.06696 | 33104 ft | 558 kts | 113° |
| 2026-04-25 17:34 | 27.99376 | -41.98586 | 33108 ft | 556 kts | 118° |
| 2026-04-25 17:35 | 27.95668 | -41.90908 | 33090 ft | 555 kts | 122° |
| 2026-04-25 17:35 | 27.91858 | -41.83309 | 33100 ft | 555 kts | 122° |
| 2026-04-25 17:36 | 27.88094 | -41.75725 | 33115 ft | 556 kts | 122° |
| 2026-04-25 17:36 | 27.84336 | -41.68084 | 33106 ft | 557 kts | 121° |
| 2026-04-25 17:37 | 27.80568 | -41.60418 | 33098 ft | 558 kts | 122° |
| 2026-04-25 17:37 | 27.76792 | -41.52756 | 33117 ft | 559 kts | 122° |
| 2026-04-25 17:38 | 27.74257 | -41.47626 | 33110 ft | 559 kts | 122° |
| 2026-04-25 17:38 | 27.69200 | -41.37411 | 33089 ft | 560 kts | 122° |
| 2026-04-25 17:39 | 27.65395 | -41.29740 | 33108 ft | 560 kts | 122° |
| 2026-04-25 17:39 | 27.61607 | -41.22118 | 33105 ft | 560 kts | 122° |
| 2026-04-25 17:40 | 27.57788 | -41.14447 | 33111 ft | 561 kts | 122° |
| 2026-04-25 17:40 | 27.53965 | -41.06781 | 33102 ft | 560 kts | 122° |
| 2026-04-25 17:41 | 27.50141 | -40.99127 | 33109 ft | 560 kts | 122° |
| 2026-04-25 17:41 | 27.46301 | -40.91455 | 33123 ft | 560 kts | 122° |
| 2026-04-25 17:42 | 27.42493 | -40.83861 | 33090 ft | 561 kts | 122° |
| 2026-04-25 17:42 | 27.38649 | -40.76209 | 33109 ft | 560 kts | 122° |
| 2026-04-25 17:43 | 27.34802 | -40.68565 | 33127 ft | 561 kts | 122° |
| 2026-04-25 17:43 | 27.30953 | -40.60929 | 33114 ft | 561 kts | 122° |
| 2026-04-25 17:44 | 27.27100 | -40.53298 | 33100 ft | 561 kts | 122° |
| 2026-04-25 17:44 | 27.23266 | -40.45719 | 33120 ft | 561 kts | 122° |
| 2026-04-25 17:45 | 27.20678 | -40.40610 | 33105 ft | 562 kts | 122° |
| 2026-04-25 17:45 | 27.15527 | -40.30461 | 33092 ft | 562 kts | 122° |
| 2026-04-25 17:46 | 27.11648 | -40.22833 | 33116 ft | 562 kts | 122° |
| 2026-04-25 17:46 | 27.07762 | -40.15204 | 33107 ft | 562 kts | 122° |
| 2026-04-25 17:47 | 27.03872 | -40.07580 | 33128 ft | 563 kts | 122° |
| 2026-04-25 17:47 | 26.99978 | -39.99960 | 33122 ft | 563 kts | 122° |
| 2026-04-25 17:48 | 26.94449 | -39.88379 | 33115 ft | 564 kts | 119° |
| 2026-04-25 17:49 | 26.90862 | -39.80561 | 33126 ft | 564 kts | 119° |
| 2026-04-25 17:49 | 26.87238 | -39.72763 | 33107 ft | 564 kts | 119° |
| 2026-04-25 17:50 | 26.83573 | -39.64972 | 33108 ft | 564 kts | 120° |
| 2026-04-25 17:50 | 26.79908 | -39.57211 | 33122 ft | 564 kts | 120° |
| 2026-04-25 17:51 | 26.76858 | -39.50760 | 33114 ft | 564 kts | 120° |
| 2026-04-25 17:51 | 26.73188 | -39.43002 | 33101 ft | 564 kts | 120° |
| 2026-04-25 17:52 | 26.69514 | -39.35246 | 33116 ft | 564 kts | 120° |
| 2026-04-25 17:52 | 26.65837 | -39.27499 | 33118 ft | 564 kts | 120° |
| 2026-04-25 17:53 | 26.62176 | -39.19798 | 33106 ft | 564 kts | 120° |
| 2026-04-25 17:53 | 26.58486 | -39.12053 | 33128 ft | 564 kts | 120° |
| 2026-04-25 17:54 | 26.54788 | -39.04303 | 33101 ft | 565 kts | 120° |
| 2026-04-25 17:54 | 26.51083 | -38.96553 | 33103 ft | 565 kts | 120° |
| 2026-04-25 17:55 | 26.47372 | -38.88804 | 33093 ft | 566 kts | 120° |
| 2026-04-25 17:55 | 26.43651 | -38.81047 | 33104 ft | 566 kts | 120° |
| 2026-04-25 17:56 | 26.39946 | -38.73338 | 33106 ft | 566 kts | 120° |
| 2026-04-25 17:56 | 26.36221 | -38.65599 | 33114 ft | 567 kts | 120° |
| 2026-04-25 17:57 | 26.32484 | -38.57851 | 33090 ft | 567 kts | 120° |
| 2026-04-25 17:57 | 26.28742 | -38.50106 | 33106 ft | 567 kts | 120° |
| 2026-04-25 17:58 | 26.24997 | -38.42368 | 33115 ft | 567 kts | 120° |
| 2026-04-25 17:58 | 26.21241 | -38.34621 | 33103 ft | 568 kts | 120° |
| 2026-04-25 17:59 | 26.17511 | -38.26941 | 33087 ft | 567 kts | 120° |
| 2026-04-25 17:59 | 26.13751 | -38.19211 | 33104 ft | 567 kts | 120° |
| 2026-04-25 18:00 | 26.09987 | -38.11488 | 33108 ft | 568 kts | 120° |
| 2026-04-25 18:00 | 26.06216 | -38.03763 | 33106 ft | 568 kts | 120° |
| 2026-04-25 18:01 | 26.02431 | -37.96024 | 33091 ft | 568 kts | 120° |
| 2026-04-25 18:01 | 25.98647 | -37.88301 | 33107 ft | 569 kts | 120° |
| 2026-04-25 18:02 | 25.94880 | -37.80625 | 33103 ft | 569 kts | 120° |
| 2026-04-25 18:02 | 25.91081 | -37.72897 | 33103 ft | 569 kts | 120° |
| 2026-04-25 18:03 | 25.87278 | -37.65173 | 33089 ft | 569 kts | 120° |
| 2026-04-25 18:03 | 25.83476 | -37.57466 | 33105 ft | 569 kts | 120° |
| 2026-04-25 18:04 | 25.79694 | -37.49813 | 33107 ft | 569 kts | 120° |
| 2026-04-25 18:04 | 25.75878 | -37.42102 | 33113 ft | 570 kts | 120° |
| 2026-04-25 18:05 | 25.72053 | -37.34389 | 33092 ft | 570 kts | 120° |
| 2026-04-25 18:05 | 25.68225 | -37.26680 | 33108 ft | 570 kts | 120° |
| 2026-04-25 18:06 | 25.64391 | -37.18975 | 33113 ft | 571 kts | 120° |
| 2026-04-25 18:06 | 25.60550 | -37.11268 | 33108 ft | 571 kts | 120° |
| 2026-04-25 18:07 | 25.56704 | -37.03562 | 33092 ft | 571 kts | 120° |
| 2026-04-25 18:07 | 25.52852 | -36.95859 | 33117 ft | 572 kts | 120° |
| 2026-04-25 18:08 | 25.48994 | -36.88156 | 33107 ft | 572 kts | 120° |
| 2026-04-25 18:08 | 25.45133 | -36.80462 | 33110 ft | 572 kts | 120° |
| 2026-04-25 18:09 | 25.41262 | -36.72760 | 33123 ft | 572 kts | 120° |
| 2026-04-25 18:09 | 25.37412 | -36.65111 | 33110 ft | 573 kts | 120° |
| 2026-04-25 18:10 | 25.33527 | -36.57408 | 33113 ft | 573 kts | 120° |
| 2026-04-25 18:10 | 25.29639 | -36.49708 | 33111 ft | 573 kts | 120° |
| 2026-04-25 18:11 | 25.25750 | -36.42023 | 33089 ft | 573 kts | 120° |
| 2026-04-25 18:11 | 25.21852 | -36.34330 | 33116 ft | 573 kts | 120° |
| 2026-04-25 18:12 | 25.17953 | -36.26652 | 33108 ft | 573 kts | 120° |
| 2026-04-25 18:12 | 25.14053 | -36.18982 | 33117 ft | 573 kts | 120° |
| 2026-04-25 18:13 | 25.10141 | -36.11298 | 33088 ft | 574 kts | 120° |
| 2026-04-25 18:13 | 25.06254 | -36.03679 | 33112 ft | 573 kts | 120° |
| 2026-04-25 18:14 | 25.00371 | -35.92173 | 33115 ft | 575 kts | 120° |
| 2026-04-25 18:14 | 24.96441 | -35.84501 | 33115 ft | 575 kts | 120° |
| 2026-04-25 18:15 | 24.92504 | -35.76826 | 33098 ft | 575 kts | 121° |
| 2026-04-25 18:15 | 24.88558 | -35.69149 | 33123 ft | 576 kts | 121° |
| 2026-04-25 18:16 | 24.84606 | -35.61472 | 33117 ft | 576 kts | 121° |
| 2026-04-25 18:17 | 24.78667 | -35.49958 | 33127 ft | 577 kts | 120° |
| 2026-04-25 18:17 | 24.74697 | -35.42277 | 33110 ft | 577 kts | 121° |
| 2026-04-25 18:18 | 24.70729 | -35.34612 | 33118 ft | 577 kts | 121° |
| 2026-04-25 18:18 | 24.66753 | -35.26946 | 33117 ft | 577 kts | 121° |
| 2026-04-25 18:19 | 24.62771 | -35.19278 | 33122 ft | 577 kts | 121° |
| 2026-04-25 18:19 | 24.58804 | -35.11652 | 33098 ft | 578 kts | 121° |
| 2026-04-25 18:20 | 24.54815 | -35.03996 | 33118 ft | 577 kts | 121° |
| 2026-04-25 18:20 | 24.50816 | -34.96334 | 33130 ft | 577 kts | 121° |
| 2026-04-25 18:21 | 24.46815 | -34.88680 | 33123 ft | 578 kts | 121° |
| 2026-04-25 18:21 | 24.42806 | -34.81022 | 33096 ft | 578 kts | 121° |
| 2026-04-25 18:22 | 24.38797 | -34.73378 | 33139 ft | 578 kts | 121° |
| 2026-04-25 18:22 | 24.34781 | -34.65731 | 33126 ft | 578 kts | 121° |
| 2026-04-25 18:23 | 24.30781 | -34.58128 | 33120 ft | 579 kts | 121° |
| 2026-04-25 18:23 | 24.26755 | -34.50486 | 33127 ft | 579 kts | 121° |
| 2026-04-25 18:24 | 24.22724 | -34.42848 | 33122 ft | 579 kts | 121° |
| 2026-04-25 18:24 | 24.18687 | -34.35210 | 33126 ft | 579 kts | 121° |
| 2026-04-25 18:25 | 24.14644 | -34.27572 | 33125 ft | 579 kts | 121° |
| 2026-04-25 18:25 | 24.10604 | -34.19952 | 33142 ft | 579 kts | 121° |
| 2026-04-25 18:26 | 24.06571 | -34.12355 | 33110 ft | 579 kts | 121° |
| 2026-04-25 18:26 | 24.02523 | -34.04741 | 33122 ft | 579 kts | 121° |
| 2026-04-25 18:27 | 23.98442 | -33.97132 | 33125 ft | 579 kts | 123° |
| 2026-04-25 18:27 | 23.94180 | -33.89665 | 33128 ft | 578 kts | 124° |
| 2026-04-25 18:28 | 23.89847 | -33.82244 | 33125 ft | 578 kts | 124° |
| 2026-04-25 18:28 | 23.85576 | -33.74879 | 33124 ft | 577 kts | 124° |
| 2026-04-25 18:29 | 23.79164 | -33.63737 | 33129 ft | 577 kts | 124° |
| 2026-04-25 18:30 | 23.70604 | -33.48891 | 33124 ft | 577 kts | 124° |
| 2026-04-25 18:30 | 23.66314 | -33.41474 | 33141 ft | 578 kts | 124° |
| 2026-04-25 18:31 | 23.62015 | -33.34056 | 33126 ft | 579 kts | 124° |
| 2026-04-25 18:31 | 23.57737 | -33.26681 | 33126 ft | 579 kts | 124° |
| 2026-04-25 18:32 | 23.53418 | -33.19247 | 33123 ft | 580 kts | 124° |
| 2026-04-25 18:32 | 23.49100 | -33.11825 | 33128 ft | 579 kts | 124° |
| 2026-04-25 18:33 | 23.44783 | -33.04416 | 33115 ft | 579 kts | 124° |
| 2026-04-25 18:33 | 23.40488 | -32.97055 | 33121 ft | 579 kts | 124° |
| 2026-04-25 18:34 | 23.36164 | -32.89657 | 33121 ft | 579 kts | 124° |
| 2026-04-25 18:34 | 23.31835 | -32.82259 | 33107 ft | 579 kts | 124° |
| 2026-04-25 18:35 | 23.27505 | -32.74871 | 33117 ft | 578 kts | 124° |
| 2026-04-25 18:35 | 23.23178 | -32.67500 | 33118 ft | 578 kts | 124° |
| 2026-04-25 18:36 | 23.19580 | -32.61378 | 33127 ft | 578 kts | 124° |
| 2026-04-25 18:36 | 23.15244 | -32.54009 | 33118 ft | 579 kts | 124° |
| 2026-04-25 18:37 | 23.10906 | -32.46648 | 33109 ft | 578 kts | 124° |
| 2026-04-25 18:37 | 23.06568 | -32.39298 | 33114 ft | 578 kts | 124° |
| 2026-04-25 18:38 | 23.02228 | -32.31955 | 33124 ft | 578 kts | 124° |
| 2026-04-25 18:38 | 22.97880 | -32.24610 | 33115 ft | 578 kts | 124° |
| 2026-04-25 18:39 | 22.93524 | -32.17260 | 33081 ft | 579 kts | 124° |
| 2026-04-25 18:39 | 22.89199 | -32.09972 | 33106 ft | 577 kts | 125° |
| 2026-04-25 18:40 | 22.84851 | -32.02658 | 33110 ft | 577 kts | 125° |
| 2026-04-25 18:40 | 22.80499 | -31.95345 | 33108 ft | 576 kts | 125° |
| 2026-04-25 18:41 | 22.76145 | -31.88041 | 33112 ft | 576 kts | 125° |
| 2026-04-25 18:41 | 22.71793 | -31.80750 | 33111 ft | 575 kts | 125° |
| 2026-04-25 18:42 | 22.68180 | -31.74704 | 33101 ft | 575 kts | 125° |
| 2026-04-25 18:42 | 22.63087 | -31.66195 | 33114 ft | 575 kts | 125° |
| 2026-04-25 18:43 | 22.58755 | -31.58968 | 33106 ft | 575 kts | 125° |
| 2026-04-25 18:43 | 22.54396 | -31.51705 | 33115 ft | 575 kts | 125° |
| 2026-04-25 18:44 | 22.50026 | -31.44435 | 33106 ft | 575 kts | 125° |
| 2026-04-25 18:44 | 22.45660 | -31.37180 | 33100 ft | 575 kts | 125° |
| 2026-04-25 18:45 | 22.41321 | -31.29980 | 33105 ft | 575 kts | 125° |
| 2026-04-25 18:45 | 22.36948 | -31.22734 | 33100 ft | 575 kts | 125° |
| 2026-04-25 18:46 | 22.32573 | -31.15495 | 33070 ft | 575 kts | 125° |
| 2026-04-25 18:46 | 22.28205 | -31.08277 | 33096 ft | 574 kts | 125° |
| 2026-04-25 18:47 | 22.23837 | -31.01068 | 33098 ft | 573 kts | 125° |
| 2026-04-25 18:47 | 22.19465 | -30.93863 | 33114 ft | 573 kts | 126° |
| 2026-04-25 18:48 | 22.15095 | -30.86671 | 33103 ft | 574 kts | 126° |
| 2026-04-25 18:48 | 22.10713 | -30.79470 | 33077 ft | 573 kts | 126° |
| 2026-04-25 18:49 | 22.06341 | -30.72292 | 33089 ft | 573 kts | 126° |
| 2026-04-25 18:49 | 22.01990 | -30.65159 | 33099 ft | 573 kts | 126° |
| 2026-04-25 18:50 | 21.97604 | -30.57980 | 33098 ft | 573 kts | 126° |
| 2026-04-25 18:50 | 21.93219 | -30.50812 | 33092 ft | 573 kts | 126° |
| 2026-04-25 18:51 | 21.89575 | -30.44862 | 33064 ft | 572 kts | 126° |
| 2026-04-25 18:51 | 21.84453 | -30.36508 | 33094 ft | 571 kts | 126° |
| 2026-04-25 18:52 | 21.80068 | -30.29367 | 33086 ft | 571 kts | 126° |
| 2026-04-25 18:52 | 21.75683 | -30.22237 | 33090 ft | 571 kts | 126° |
| 2026-04-25 18:53 | 21.71292 | -30.15105 | 33086 ft | 571 kts | 126° |
| 2026-04-25 18:53 | 21.66932 | -30.08031 | 33101 ft | 571 kts | 126° |
| 2026-04-25 18:54 | 21.60329 | -29.97337 | 33086 ft | 571 kts | 126° |
| 2026-04-25 18:55 | 21.55930 | -29.90225 | 33084 ft | 571 kts | 126° |
| 2026-04-25 18:55 | 21.51529 | -29.83115 | 33084 ft | 571 kts | 126° |
| 2026-04-25 18:56 | 21.47083 | -29.76042 | 33060 ft | 571 kts | 128° |
| 2026-04-25 18:56 | 21.42517 | -29.69144 | 33075 ft | 569 kts | 129° |
| 2026-04-25 18:57 | 21.37892 | -29.62236 | 33075 ft | 569 kts | 128° |
| 2026-04-25 18:57 | 21.33289 | -29.55316 | 33081 ft | 569 kts | 128° |
| 2026-04-25 18:58 | 21.28698 | -29.48380 | 33083 ft | 569 kts | 128° |
| 2026-04-25 18:58 | 21.21852 | -29.38043 | 33068 ft | 568 kts | 128° |
| 2026-04-25 18:59 | 21.12704 | -29.24275 | 33083 ft | 568 kts | 128° |
| 2026-04-25 19:00 | 21.05818 | -29.13936 | 33080 ft | 569 kts | 128° |
| 2026-04-25 19:01 | 20.98922 | -29.03597 | 33077 ft | 569 kts | 128° |
| 2026-04-25 19:01 | 20.94317 | -28.96704 | 33055 ft | 569 kts | 128° |
| 2026-04-25 19:02 | 20.87407 | -28.86378 | 33063 ft | 568 kts | 128° |
| 2026-04-25 19:03 | 20.82056 | -28.78395 | 33062 ft | 568 kts | 128° |
| 2026-04-25 19:03 | 20.75923 | -28.69257 | 33064 ft | 567 kts | 128° |
| 2026-04-25 19:04 | 20.69017 | -28.58986 | 33065 ft | 567 kts | 129° |
| 2026-04-25 19:05 | 20.59827 | -28.45346 | 33058 ft | 566 kts | 129° |
| 2026-04-25 19:06 | 20.55220 | -28.38522 | 33044 ft | 566 kts | 128° |
| 2026-04-25 19:06 | 20.48318 | -28.28311 | 33050 ft | 565 kts | 129° |
| 2026-04-25 19:07 | 20.41447 | -28.18163 | 33055 ft | 564 kts | 129° |
| 2026-04-25 19:08 | 20.34548 | -28.07993 | 33058 ft | 564 kts | 129° |
| 2026-04-25 19:09 | 20.26903 | -27.96745 | 33055 ft | 563 kts | 129° |
| 2026-04-25 19:10 | 20.18493 | -27.84393 | 33043 ft | 562 kts | 129° |
| 2026-04-25 19:10 | 20.13896 | -27.77655 | 33052 ft | 562 kts | 129° |
| 2026-04-25 19:11 | 20.09292 | -27.70913 | 33028 ft | 562 kts | 129° |
| 2026-04-25 19:11 | 20.04720 | -27.64224 | 33050 ft | 561 kts | 129° |
| 2026-04-25 19:12 | 20.00127 | -27.57514 | 33046 ft | 561 kts | 129° |
| 2026-04-25 19:12 | 19.95528 | -27.50801 | 33046 ft | 561 kts | 129° |
| 2026-04-25 19:13 | 19.90952 | -27.44130 | 33048 ft | 561 kts | 129° |
| 2026-04-25 19:13 | 19.86350 | -27.37429 | 33040 ft | 561 kts | 129° |
| 2026-04-25 19:14 | 19.81756 | -27.30748 | 33035 ft | 560 kts | 129° |
| 2026-04-25 19:14 | 19.77163 | -27.24075 | 33039 ft | 559 kts | 129° |
| 2026-04-25 19:15 | 19.72568 | -27.17406 | 33036 ft | 559 kts | 129° |
| 2026-04-25 19:15 | 19.67977 | -27.10750 | 33038 ft | 559 kts | 129° |
| 2026-04-25 19:16 | 19.63378 | -27.04091 | 33038 ft | 559 kts | 129° |
| 2026-04-25 19:16 | 19.58781 | -26.97441 | 33024 ft | 558 kts | 129° |
| 2026-04-25 19:17 | 19.54210 | -26.90837 | 33032 ft | 558 kts | 129° |
| 2026-04-25 19:17 | 19.49619 | -26.84210 | 33042 ft | 557 kts | 129° |
| 2026-04-25 19:18 | 19.45021 | -26.77581 | 33036 ft | 558 kts | 129° |
| 2026-04-25 19:18 | 19.40417 | -26.70950 | 33035 ft | 558 kts | 129° |
| 2026-04-25 19:19 | 19.35806 | -26.64317 | 33038 ft | 558 kts | 129° |
| 2026-04-25 19:19 | 19.31228 | -26.57738 | 33036 ft | 558 kts | 129° |
| 2026-04-25 19:20 | 19.26604 | -26.51100 | 33033 ft | 559 kts | 129° |
| 2026-04-25 19:20 | 19.21983 | -26.44474 | 33034 ft | 559 kts | 129° |
| 2026-04-25 19:21 | 19.18143 | -26.38973 | 33030 ft | 559 kts | 129° |
| 2026-04-25 19:21 | 19.10455 | -26.27973 | 33015 ft | 559 kts | 129° |
| 2026-04-25 19:22 | 19.05839 | -26.21378 | 33022 ft | 557 kts | 129° |
| 2026-04-25 19:23 | 18.99672 | -26.12577 | 33024 ft | 556 kts | 129° |
| 2026-04-25 19:23 | 18.92800 | -26.02766 | 33024 ft | 556 kts | 129° |
| 2026-04-25 19:24 | 18.88231 | -25.96172 | 33025 ft | 556 kts | 128° |
| 2026-04-25 19:25 | 18.79121 | -25.83011 | 33019 ft | 553 kts | 128° |
| 2026-04-25 19:25 | 18.74603 | -25.76509 | 33019 ft | 552 kts | 128° |
| 2026-04-25 19:26 | 18.70068 | -25.69990 | 33014 ft | 551 kts | 128° |
| 2026-04-25 19:26 | 18.65530 | -25.63474 | 33023 ft | 551 kts | 129° |
| 2026-04-25 19:27 | 18.61724 | -25.58013 | 33019 ft | 551 kts | 129° |
| 2026-04-25 19:27 | 18.56450 | -25.50453 | 33016 ft | 550 kts | 128° |
| 2026-04-25 19:28 | 18.51915 | -25.43958 | 33015 ft | 549 kts | 128° |
| 2026-04-25 19:28 | 18.47388 | -25.37482 | 33015 ft | 548 kts | 128° |
| 2026-04-25 19:29 | 18.42883 | -25.31045 | 33016 ft | 548 kts | 129° |
| 2026-04-25 19:29 | 18.38358 | -25.24586 | 33011 ft | 548 kts | 129° |
| 2026-04-25 19:30 | 18.33837 | -25.18140 | 33002 ft | 547 kts | 128° |
| 2026-04-25 19:30 | 18.29319 | -25.11702 | 33007 ft | 545 kts | 128° |
| 2026-04-25 19:31 | 18.24812 | -25.05287 | 33008 ft | 544 kts | 128° |
| 2026-04-25 19:31 | 18.20315 | -24.98893 | 33009 ft | 543 kts | 128° |
| 2026-04-25 19:32 | 18.15821 | -24.92509 | 33007 ft | 543 kts | 128° |
| 2026-04-25 19:32 | 18.12080 | -24.87201 | 33006 ft | 543 kts | 129° |
| 2026-04-25 19:33 | 18.06826 | -24.79753 | 32999 ft | 542 kts | 128° |
| 2026-04-25 19:33 | 18.02337 | -24.73394 | 33002 ft | 541 kts | 128° |
| 2026-04-25 19:34 | 17.97880 | -24.67087 | 33003 ft | 540 kts | 128° |
| 2026-04-25 19:34 | 17.93395 | -24.60748 | 33002 ft | 540 kts | 128° |
| 2026-04-25 19:35 | 17.88913 | -24.54418 | 33004 ft | 540 kts | 128° |
| 2026-04-25 19:35 | 17.84433 | -24.48097 | 32994 ft | 540 kts | 128° |
| 2026-04-25 19:36 | 17.79948 | -24.41775 | 33007 ft | 539 kts | 128° |
| 2026-04-25 19:36 | 17.75474 | -24.35472 | 32991 ft | 538 kts | 128° |
| 2026-04-25 19:37 | 17.70996 | -24.29173 | 32992 ft | 538 kts | 129° |
| 2026-04-25 19:37 | 17.66517 | -24.22936 | 32992 ft | 537 kts | 129° |
| 2026-04-25 19:38 | 17.62007 | -24.16684 | 32992 ft | 537 kts | 129° |
| 2026-04-25 19:38 | 17.57492 | -24.10424 | 32989 ft | 537 kts | 129° |
| 2026-04-25 19:39 | 17.52979 | -24.04164 | 32995 ft | 537 kts | 129° |
| 2026-04-25 19:39 | 17.48506 | -23.97964 | 32982 ft | 536 kts | 129° |
| 2026-04-25 19:40 | 17.44000 | -23.91723 | 32975 ft | 536 kts | 129° |
| 2026-04-25 19:40 | 17.39504 | -23.85503 | 32981 ft | 536 kts | 129° |
| 2026-04-25 19:41 | 17.34998 | -23.79275 | 32989 ft | 536 kts | 129° |
| 2026-04-25 19:41 | 17.32009 | -23.75147 | 32988 ft | 536 kts | 129° |
| 2026-04-25 19:42 | 17.26017 | -23.66879 | 32983 ft | 535 kts | 129° |
| 2026-04-25 19:42 | 17.21525 | -23.60687 | 32980 ft | 534 kts | 129° |
| 2026-04-25 19:43 | 17.17031 | -23.54499 | 32982 ft | 533 kts | 129° |
| 2026-04-25 19:43 | 17.12536 | -23.48314 | 32981 ft | 533 kts | 129° |
| 2026-04-25 19:44 | 17.08077 | -23.42184 | 32981 ft | 533 kts | 129° |
| 2026-04-25 19:44 | 17.03586 | -23.36016 | 32980 ft | 533 kts | 129° |
| 2026-04-25 19:45 | 16.99094 | -23.29852 | 32949 ft | 533 kts | 129° |
| 2026-04-25 19:45 | 16.94607 | -23.23700 | 32960 ft | 532 kts | 129° |
| 2026-04-25 19:46 | 16.90117 | -23.17548 | 32962 ft | 532 kts | 129° |
| 2026-04-25 19:46 | 16.85625 | -23.11400 | 32950 ft | 532 kts | 129° |
| 2026-04-25 19:47 | 16.81136 | -23.05259 | 32938 ft | 532 kts | 129° |
| 2026-04-25 19:47 | 16.76672 | -22.99141 | 32940 ft | 532 kts | 128° |
| 2026-04-25 19:48 | 16.72872 | -22.92471 | 32941 ft | 535 kts | 117° |
| 2026-04-25 19:48 | 16.70143 | -22.85239 | 32950 ft | 536 kts | 110° |
| 2026-04-25 19:49 | 16.68488 | -22.80334 | 32943 ft | 536 kts | 110° |
| 2026-04-25 19:49 | 16.65152 | -22.70562 | 32941 ft | 537 kts | 110° |
| 2026-04-25 19:50 | 16.61336 | -22.59623 | 32944 ft | 537 kts | 110° |
| 2026-04-25 19:51 | 16.58769 | -22.52300 | 32953 ft | 537 kts | 110° |
| 2026-04-25 19:51 | 16.56203 | -22.44976 | 32953 ft | 537 kts | 110° |
| 2026-04-25 19:52 | 16.53636 | -22.37656 | 32950 ft | 538 kts | 110° |
| 2026-04-25 19:52 | 16.51066 | -22.30333 | 32953 ft | 538 kts | 110° |
| 2026-04-25 19:53 | 16.48494 | -22.23018 | 32940 ft | 537 kts | 110° |
| 2026-04-25 19:53 | 16.45924 | -22.15716 | 32949 ft | 536 kts | 110° |
| 2026-04-25 19:54 | 16.43360 | -22.08440 | 32948 ft | 535 kts | 110° |
| 2026-04-25 19:54 | 16.40809 | -22.01207 | 32956 ft | 534 kts | 110° |
| 2026-04-25 19:55 | 16.38241 | -21.93940 | 32953 ft | 534 kts | 110° |
| 2026-04-25 19:55 | 16.35672 | -21.86675 | 32954 ft | 534 kts | 110° |
| 2026-04-25 19:56 | 16.33102 | -21.79416 | 32954 ft | 534 kts | 110° |
| 2026-04-25 19:56 | 16.30524 | -21.72144 | 32952 ft | 535 kts | 110° |
| 2026-04-25 19:57 | 16.27956 | -21.64914 | 32949 ft | 536 kts | 111° |
| 2026-04-25 19:57 | 16.25349 | -21.57648 | 32953 ft | 536 kts | 111° |
| 2026-04-25 19:58 | 16.22730 | -21.50377 | 32941 ft | 535 kts | 111° |
| 2026-04-25 19:58 | 16.20135 | -21.43173 | 32949 ft | 534 kts | 111° |
| 2026-04-25 19:59 | 16.17529 | -21.35936 | 32945 ft | 534 kts | 111° |
| 2026-04-25 19:59 | 16.14922 | -21.28705 | 32943 ft | 534 kts | 111° |
| 2026-04-25 20:00 | 16.12313 | -21.21476 | 32939 ft | 534 kts | 111° |
| 2026-04-25 20:00 | 16.09696 | -21.14236 | 32943 ft | 534 kts | 111° |
| 2026-04-25 20:01 | 16.05784 | -21.03429 | 32938 ft | 535 kts | 111° |
| 2026-04-25 20:01 | 16.03160 | -20.96190 | 32936 ft | 535 kts | 111° |
| 2026-04-25 20:02 | 16.00531 | -20.88947 | 32939 ft | 535 kts | 111° |
| 2026-04-25 20:02 | 15.97901 | -20.81709 | 32923 ft | 535 kts | 111° |
| 2026-04-25 20:03 | 15.95266 | -20.74467 | 32934 ft | 534 kts | 111° |
| 2026-04-25 20:03 | 15.92636 | -20.67245 | 32931 ft | 534 kts | 111° |
| 2026-04-25 20:04 | 15.90022 | -20.60076 | 32929 ft | 534 kts | 111° |
| 2026-04-25 20:04 | 15.87394 | -20.52876 | 32925 ft | 533 kts | 111° |
| 2026-04-25 20:05 | 15.84759 | -20.45669 | 32932 ft | 533 kts | 111° |
| 2026-04-25 20:05 | 15.82124 | -20.38467 | 32926 ft | 534 kts | 111° |
| 2026-04-25 20:06 | 15.79478 | -20.31243 | 32932 ft | 534 kts | 111° |
| 2026-04-25 20:06 | 15.76852 | -20.24085 | 32925 ft | 534 kts | 111° |
| 2026-04-25 20:07 | 15.74204 | -20.16872 | 32928 ft | 534 kts | 111° |
| 2026-04-25 20:07 | 15.71554 | -20.09660 | 32925 ft | 534 kts | 111° |
| 2026-04-25 20:08 | 15.68910 | -20.02475 | 32919 ft | 533 kts | 111° |
| 2026-04-25 20:08 | 15.66290 | -19.95279 | 32917 ft | 532 kts | 110° |
| 2026-04-25 20:09 | 15.63750 | -19.88121 | 32917 ft | 531 kts | 110° |
| 2026-04-25 20:09 | 15.61201 | -19.80930 | 32918 ft | 531 kts | 110° |
| 2026-04-25 20:10 | 15.59070 | -19.74948 | 32917 ft | 531 kts | 110° |
| 2026-04-25 20:10 | 15.56504 | -19.67769 | 32917 ft | 531 kts | 110° |
| 2026-04-25 20:11 | 15.53930 | -19.60577 | 32915 ft | 531 kts | 110° |
| 2026-04-25 20:11 | 15.51359 | -19.53395 | 32916 ft | 531 kts | 110° |
| 2026-04-25 20:12 | 15.48784 | -19.46211 | 32917 ft | 531 kts | 110° |
| 2026-04-25 20:12 | 15.46642 | -19.40241 | 32915 ft | 532 kts | 110° |
| 2026-04-25 20:13 | 15.43630 | -19.31856 | 32912 ft | 530 kts | 110° |
| 2026-04-25 20:13 | 15.41061 | -19.24706 | 32908 ft | 529 kts | 110° |
| 2026-04-25 20:14 | 15.38392 | -19.17615 | 32904 ft | 527 kts | 116° |
| 2026-04-25 20:14 | 15.34807 | -19.11056 | 32915 ft | 526 kts | 122° |
| 2026-04-25 20:15 | 15.30920 | -19.04627 | 32909 ft | 526 kts | 123° |
| 2026-04-25 20:15 | 15.26996 | -18.98218 | 32905 ft | 527 kts | 123° |
| 2026-04-25 20:16 | 15.23059 | -18.91816 | 32905 ft | 527 kts | 123° |
| 2026-04-25 20:16 | 15.19113 | -18.85412 | 32905 ft | 527 kts | 123° |
| 2026-04-25 20:17 | 15.15154 | -18.79007 | 32903 ft | 526 kts | 123° |
| 2026-04-25 20:17 | 15.11220 | -18.72678 | 32896 ft | 525 kts | 123° |
| 2026-04-25 20:18 | 15.07265 | -18.66332 | 32898 ft | 524 kts | 123° |
| 2026-04-25 20:18 | 15.03313 | -18.59999 | 32900 ft | 523 kts | 123° |
| 2026-04-25 20:19 | 14.99365 | -18.53676 | 32897 ft | 523 kts | 123° |
| 2026-04-25 20:19 | 14.95417 | -18.47359 | 32896 ft | 523 kts | 123° |
| 2026-04-25 20:20 | 14.91465 | -18.41040 | 32896 ft | 523 kts | 123° |
| 2026-04-25 20:20 | 14.87525 | -18.34752 | 32882 ft | 523 kts | 123° |
| 2026-04-25 20:21 | 14.83552 | -18.28444 | 32892 ft | 522 kts | 123° |
| 2026-04-25 20:21 | 14.79573 | -18.22152 | 32893 ft | 522 kts | 123° |
| 2026-04-25 20:22 | 14.76268 | -18.16935 | 32890 ft | 521 kts | 123° |
| 2026-04-25 20:22 | 14.71628 | -18.09617 | 32885 ft | 521 kts | 123° |
| 2026-04-25 20:23 | 14.67677 | -18.03393 | 32888 ft | 521 kts | 123° |
| 2026-04-25 20:23 | 14.63699 | -17.97132 | 32879 ft | 521 kts | 123° |
| 2026-04-25 20:24 | 14.59720 | -17.90875 | 32878 ft | 521 kts | 123° |
| 2026-04-25 20:24 | 14.56402 | -17.84290 | 32627 ft | 512 kts | 108° |
| 2026-04-25 20:25 | 14.55459 | -17.80777 | 32050 ft | 500 kts | 99° |
| 2026-04-25 20:25 | 14.55023 | -17.77264 | 31109 ft | 490 kts | 90° |
| 2026-04-25 20:25 | 14.55102 | -17.73781 | 30052 ft | 482 kts | 81° |
| 2026-04-25 20:25 | 14.55695 | -17.70400 | 28820 ft | 475 kts | 72° |
| 2026-04-25 20:26 | 14.56788 | -17.67214 | 27706 ft | 466 kts | 63° |
| 2026-04-25 20:26 | 14.58333 | -17.64323 | 26722 ft | 454 kts | 53° |
| 2026-04-25 20:26 | 14.60272 | -17.61797 | 25793 ft | 443 kts | 44° |
| 2026-04-25 20:26 | 14.62537 | -17.59694 | 24841 ft | 434 kts | 34° |
| 2026-04-25 20:27 | 14.65055 | -17.58017 | 23895 ft | 427 kts | 27° |
| 2026-04-25 20:27 | 14.67627 | -17.56585 | 22887 ft | 423 kts | 25° |
| 2026-04-25 20:27 | 14.70237 | -17.55214 | 21834 ft | 418 kts | 24° |
| 2026-04-25 20:27 | 14.72827 | -17.53873 | 20852 ft | 413 kts | 24° |
| 2026-04-25 20:28 | 14.75384 | -17.52552 | 19931 ft | 409 kts | 24° |
| 2026-04-25 20:28 | 14.77923 | -17.51234 | 18974 ft | 406 kts | 25° |
| 2026-04-25 20:28 | 14.80295 | -17.49643 | 18313 ft | 407 kts | 37° |
| 2026-04-25 20:28 | 14.82312 | -17.47591 | 18138 ft | 411 kts | 48° |
| 2026-04-25 20:29 | 14.83948 | -17.45154 | 17942 ft | 412 kts | 59° |
| 2026-04-25 20:29 | 14.85100 | -17.42483 | 17870 ft | 403 kts | 71° |
| 2026-04-25 20:29 | 14.85738 | -17.39666 | 17874 ft | 402 kts | 82° |
| 2026-04-25 20:29 | 14.85853 | -17.36816 | 17868 ft | 402 kts | 94° |
| 2026-04-25 20:30 | 14.85440 | -17.33968 | 17865 ft | 401 kts | 105° |
| 2026-04-25 20:30 | 14.84513 | -17.31252 | 17868 ft | 401 kts | 116° |
| 2026-04-25 20:30 | 14.83112 | -17.28771 | 17862 ft | 399 kts | 128° |
| 2026-04-25 20:30 | 14.81292 | -17.26615 | 17860 ft | 397 kts | 139° |
| 2026-04-25 20:31 | 14.79123 | -17.24864 | 17860 ft | 394 kts | 150° |
| 2026-04-25 20:31 | 14.76696 | -17.23585 | 17861 ft | 390 kts | 162° |
| 2026-04-25 20:31 | 14.74097 | -17.22817 | 17859 ft | 386 kts | 173° |
| 2026-04-25 20:31 | 14.71439 | -17.22587 | 17856 ft | 382 kts | 184° |
| 2026-04-25 20:32 | 14.68811 | -17.22835 | 17863 ft | 379 kts | 191° |
| 2026-04-25 20:32 | 14.66209 | -17.23274 | 17864 ft | 378 kts | 193° |
| 2026-04-25 20:32 | 14.63624 | -17.23759 | 17840 ft | 376 kts | 193° |
| 2026-04-25 20:32 | 14.61087 | -17.24247 | 17294 ft | 366 kts | 193° |
| 2026-04-25 20:33 | 14.58606 | -17.24733 | 16645 ft | 358 kts | 194° |
| 2026-04-25 20:33 | 14.56175 | -17.25215 | 16195 ft | 355 kts | 193° |
| 2026-04-25 20:33 | 14.53770 | -17.25701 | 16036 ft | 359 kts | 194° |
| 2026-04-25 20:33 | 14.52104 | -17.26042 | 15926 ft | 363 kts | 193° |
| 2026-04-25 20:34 | 14.48811 | -17.26718 | 15855 ft | 363 kts | 194° |
| 2026-04-25 20:34 | 14.46336 | -17.27226 | 15849 ft | 361 kts | 194° |
| 2026-04-25 20:34 | 14.43874 | -17.27734 | 15847 ft | 361 kts | 194° |
| 2026-04-25 20:34 | 14.41404 | -17.28246 | 15855 ft | 362 kts | 194° |
| 2026-04-25 20:35 | 14.38930 | -17.28756 | 15859 ft | 362 kts | 194° |
| 2026-04-25 20:35 | 14.36454 | -17.29265 | 15851 ft | 363 kts | 194° |
| 2026-04-25 20:35 | 14.33978 | -17.29775 | 15854 ft | 363 kts | 194° |
| 2026-04-25 20:35 | 14.31500 | -17.30286 | 15856 ft | 363 kts | 194° |
| 2026-04-25 20:36 | 14.29023 | -17.30797 | 15855 ft | 363 kts | 194° |
| 2026-04-25 20:36 | 14.26549 | -17.31304 | 15771 ft | 361 kts | 193° |
| 2026-04-25 20:36 | 14.24095 | -17.31811 | 15420 ft | 358 kts | 193° |
| 2026-04-25 20:36 | 14.21665 | -17.32321 | 14967 ft | 350 kts | 194° |
| 2026-04-25 20:37 | 14.19310 | -17.32816 | 14287 ft | 343 kts | 194° |
| 2026-04-25 20:37 | 14.16994 | -17.33310 | 13698 ft | 334 kts | 194° |
| 2026-04-25 20:37 | 14.14804 | -17.33786 | 13322 ft | 317 kts | 194° |
| 2026-04-25 20:37 | 14.12695 | -17.34251 | 12837 ft | 304 kts | 193° |
| 2026-04-25 20:38 | 14.10658 | -17.34715 | 12266 ft | 295 kts | 194° |
| 2026-04-25 20:38 | 14.08650 | -17.35178 | 11410 ft | 298 kts | 193° |
| 2026-04-25 20:38 | 14.06653 | -17.35651 | 10835 ft | 291 kts | 193° |
| 2026-04-25 20:38 | 14.04692 | -17.36131 | 10329 ft | 285 kts | 193° |
| 2026-04-25 20:39 | 14.02776 | -17.36613 | 10174 ft | 287 kts | 193° |
| 2026-04-25 20:39 | 14.00799 | -17.37117 | 10031 ft | 298 kts | 193° |
| 2026-04-25 20:39 | 13.98785 | -17.37636 | 9893 ft | 296 kts | 194° |
| 2026-04-25 20:39 | 13.98140 | -17.37803 | 9871 ft | 293 kts | 194° |
| 2026-04-25 20:40 | 13.94936 | -17.38639 | 9853 ft | 277 kts | 194° |
| 2026-04-25 20:40 | 13.93012 | -17.39143 | 9864 ft | 288 kts | 194° |
| 2026-04-25 20:40 | 13.91087 | -17.39646 | 9857 ft | 283 kts | 194° |
| 2026-04-25 20:40 | 13.89197 | -17.39894 | 9843 ft | 274 kts | 174° |
| 2026-04-25 20:41 | 13.87406 | -17.39289 | 9702 ft | 272 kts | 148° |
| 2026-04-25 20:41 | 13.86067 | -17.37915 | 9270 ft | 277 kts | 121° |
| 2026-04-25 20:41 | 13.85477 | -17.36028 | 8827 ft | 281 kts | 93° |
| 2026-04-25 20:41 | 13.85786 | -17.34057 | 8461 ft | 281 kts | 66° |
| 2026-04-25 20:42 | 13.86914 | -17.32436 | 8138 ft | 280 kts | 41° |
| 2026-04-25 20:42 | 13.88538 | -17.31406 | 7944 ft | 269 kts | 26° |
| 2026-04-25 20:42 | 13.89833 | -17.30765 | 7905 ft | 268 kts | 25° |
| 2026-04-25 20:42 | 13.90410 | -17.30481 | 7895 ft | 271 kts | 25° |
| 2026-04-25 20:43 | 13.90974 | -17.30204 | 7891 ft | 273 kts | 25° |
| 2026-04-25 20:43 | 13.92712 | -17.29355 | 7867 ft | 278 kts | 25° |
| 2026-04-25 20:43 | 13.94459 | -17.28500 | 7864 ft | 278 kts | 25° |
| 2026-04-25 20:43 | 13.96202 | -17.27645 | 7853 ft | 277 kts | 25° |
| 2026-04-25 20:44 | 13.97917 | -17.26800 | 7840 ft | 275 kts | 25° |
| 2026-04-25 20:44 | 13.99638 | -17.25950 | 7660 ft | 274 kts | 25° |
| 2026-04-25 20:44 | 14.01349 | -17.25102 | 7396 ft | 272 kts | 25° |
| 2026-04-25 20:44 | 14.03051 | -17.24258 | 7104 ft | 271 kts | 25° |
| 2026-04-25 20:45 | 14.04739 | -17.23419 | 6861 ft | 267 kts | 25° |
| 2026-04-25 20:45 | 14.06400 | -17.22593 | 6581 ft | 262 kts | 24° |
| 2026-04-25 20:45 | 14.08037 | -17.21778 | 6228 ft | 263 kts | 25° |
| 2026-04-25 20:45 | 14.09671 | -17.20963 | 6076 ft | 265 kts | 24° |
| 2026-04-25 20:46 | 14.11325 | -17.20140 | 6013 ft | 263 kts | 24° |
| 2026-04-25 20:46 | 14.12972 | -17.19320 | 6002 ft | 262 kts | 25° |
| 2026-04-25 20:46 | 14.14603 | -17.18507 | 6002 ft | 258 kts | 24° |
| 2026-04-25 20:46 | 14.16219 | -17.17702 | 5997 ft | 257 kts | 25° |
| 2026-04-25 20:47 | 14.17842 | -17.16892 | 5996 ft | 259 kts | 25° |
| 2026-04-25 20:47 | 14.19459 | -17.16086 | 5996 ft | 255 kts | 24° |
| 2026-04-25 20:47 | 14.21016 | -17.15309 | 5985 ft | 243 kts | 24° |
| 2026-04-25 20:47 | 14.22496 | -17.14570 | 5978 ft | 230 kts | 24° |
| 2026-04-25 20:48 | 14.23901 | -17.13869 | 5986 ft | 222 kts | 24° |
| 2026-04-25 20:48 | 14.25288 | -17.13177 | 5983 ft | 221 kts | 24° |
| 2026-04-25 20:48 | 14.26672 | -17.12487 | 5987 ft | 223 kts | 25° |
| 2026-04-25 20:48 | 14.28074 | -17.11787 | 5880 ft | 225 kts | 24° |
| 2026-04-25 20:49 | 14.29457 | -17.11097 | 5675 ft | 223 kts | 24° |
| 2026-04-25 20:49 | 14.30835 | -17.10409 | 5461 ft | 218 kts | 23° |
| 2026-04-25 20:49 | 14.32185 | -17.09734 | 5256 ft | 213 kts | 24° |
| 2026-04-25 20:49 | 14.33506 | -17.09075 | 5069 ft | 205 kts | 23° |
| 2026-04-25 20:50 | 14.34743 | -17.08455 | 4828 ft | 189 kts | 23° |
| 2026-04-25 20:50 | 14.35891 | -17.07880 | 4556 ft | 178 kts | 24° |
| 2026-04-25 20:50 | 14.36996 | -17.07329 | 4136 ft | 173 kts | 22° |
| 2026-04-25 20:50 | 14.38111 | -17.06983 | 4034 ft | 170 kts | 0° |
| 2026-04-25 20:51 | 14.39330 | -17.07025 | 4015 ft | 177 kts | 359° |
| 2026-04-25 20:51 | 14.40559 | -17.07036 | 3905 ft | 175 kts | 359° |
| 2026-04-25 20:51 | 14.41751 | -17.07044 | 3688 ft | 167 kts | 359° |
| 2026-04-25 20:51 | 14.42933 | -17.07054 | 3308 ft | 169 kts | 360° |
| 2026-04-25 20:52 | 14.44100 | -17.07064 | 3054 ft | 163 kts | 360° |
| 2026-04-25 20:52 | 14.44459 | -17.07068 | 3047 ft | 156 kts | 0° |
| 2026-04-25 20:52 | 14.46359 | -17.07084 | 3009 ft | 174 kts | 360° |
| 2026-04-25 20:52 | 14.47563 | -17.07097 | 2998 ft | 172 kts | 0° |
| 2026-04-25 20:53 | 14.48736 | -17.07109 | 2997 ft | 166 kts | 1° |
| 2026-04-25 20:53 | 14.49890 | -17.07120 | 2998 ft | 169 kts | 0° |
| 2026-04-25 20:53 | 14.51082 | -17.07132 | 2998 ft | 173 kts | 0° |
| 2026-04-25 20:53 | 14.52271 | -17.07144 | 3003 ft | 169 kts | 1° |
| 2026-04-25 20:54 | 14.53408 | -17.07154 | 2976 ft | 158 kts | 0° |
| 2026-04-25 20:54 | 14.54146 | -17.07160 | 2663 ft | 161 kts | 0° |
| 2026-04-25 20:54 | 14.55243 | -17.07171 | 2343 ft | 154 kts | 1° |
| 2026-04-25 20:54 | 14.56295 | -17.07182 | 2116 ft | 153 kts | 1° |
| 2026-04-25 20:55 | 14.57371 | -17.07191 | 1892 ft | 153 kts | 1° |
| 2026-04-25 20:55 | 14.58394 | -17.07200 | 1716 ft | 142 kts | 0° |
| 2026-04-25 20:55 | 14.59389 | -17.07209 | 1514 ft | 142 kts | 0° |
| 2026-04-25 20:55 | 14.60684 | -17.07177 | 1245 ft | 140 kts | 0° |
| 2026-04-25 20:56 | 14.61344 | -17.07178 | 1115 ft | 141 kts | 359° |
| 2026-04-25 20:56 | 14.62334 | -17.07195 | 912 ft | 144 kts | 357° |
| 2026-04-25 20:56 | 14.63328 | -17.07229 | 822 ft | 142 kts | 359° |
| 2026-04-25 20:56 | 14.64303 | -17.07242 | 584 ft | 138 kts | 359° |
| 2026-04-25 20:57 | 14.65253 | -17.07257 | 404 ft | 139 kts | 358° |
| 2026-04-25 20:57 | 14.66180 | -17.07262 | 313 ft | 121 kts | 358° |
| 2026-04-25 20:57 | 14.66857 | -17.07281 | 305 ft | 57 kts | 358° |
| 2026-04-25 20:57 | 14.67048 | -17.07253 | 304 ft | 21 kts | 43° |
| 2026-04-25 20:58 | 14.67076 | -17.07146 | 302 ft | 0 kts | 86° |
| 2026-04-25 20:58 | 14.67077 | -17.07142 | 302 ft | 1 kts | 86° |
| 2026-04-25 20:58 | 14.67077 | -17.07109 | 302 ft | 8 kts | 89° |
| 2026-04-25 20:59 | 14.67078 | -17.07036 | 302 ft | 13 kts | 89° |
| 2026-04-25 20:59 | 14.67083 | -17.06941 | 301 ft | 11 kts | 82° |
| 2026-04-25 20:59 | 14.67091 | -17.06883 | 299 ft | 1 kts | 83° |
| 2026-04-25 20:59 | 14.67093 | -17.06872 | 299 ft | 2 kts | 83° |
| 2026-04-25 21:00 | 14.67093 | -17.06867 | 299 ft | 4 kts | 83° |
| 2026-04-25 21:00 | 14.67094 | -17.06858 | 303 ft | 0 kts | 83° |